YYYY MM/DD hh:mm	Temp	Humid	W_dir	W_spd	Barom	T_int	Light	Power	Temp2	P2	Snow	T_mid	T_base	Precip
Year Date  Time 	(F)	(%)	(Deg)	(MPH)	("Hg)	(F)	/1000	(V)	(F)	-	(")	(F)	(F)	(")
2018 11/10 00:00	-134.4	-58.0	3.1	0.0	30.10	45.6	0.0	13.02	-39.8	0	2.7	29.0	31.4	0	790	0	0	0	68.1	37.8	0.0
2018 11/10 00:15	-134.8	-58.0	3.1	0.0	30.10	45.5	0.0	13.01	-39.5	0	2.7	29.0	30.6	0	790	0	0	0	67.2	37.7	0.0
2018 11/10 00:30	-134.9	-58.0	3.1	0.0	30.10	45.3	0.0	13.01	-39.5	0	2.7	29.0	30.0	0	790	0	0	0	66.5	37.7	0.0
2018 11/10 00:45	-134.6	-58.1	3.0	0.0	30.10	45.2	0.0	13.01	-39.8	0	2.6	29.0	29.4	0	790	0	0	0	65.9	37.6	0.0
2018 11/10 01:00	-134.7	-58.0	2.8	0.0	30.09	45.1	0.0	13.02	-39.8	0	2.5	29.0	31.6	0	790	0	0	0	64.9	37.4	0.0
2018 11/10 01:15	-134.8	-58.2	2.9	0.0	30.08	44.9	0.0	13.01	-40.0	0	2.6	28.1	33.2	0	790	0	0	0	64.4	37.2	0.0
2018 11/10 01:30	-134.8	-58.0	3.3	0.0	30.08	44.8	-0.3	13.02	-39.6	0	2.9	28.1	33.3	0	790	0	0	0	64.2	37.2	0.0
2018 11/10 01:45	-135.1	-58.1	3.1	0.0	30.08	44.7	0.0	13.02	-39.5	0	2.6	29.0	30.7	0	790	0	0	0	64.5	37.1	0.0
2018 11/10 02:00	-134.9	-58.2	2.9	0.0	30.07	44.5	0.0	13.01	-40.0	0	2.8	28.1	29.5	0	790	0	0	0	64.9	37.1	0.0
2018 11/10 02:15	-134.8	-58.2	2.8	0.0	30.07	44.4	0.0	13.01	-39.8	0	2.7	28.1	30.6	0	790	0	0	0	65.7	36.9	0.0
2018 11/10 02:30	-135.2	-58.2	2.8	0.0	30.07	44.3	0.0	13.01	-39.6	0	2.8	27.2	30.7	0	790	0	0	0	66.3	36.8	0.0
2018 11/10 02:45	-134.9	-58.2	2.9	0.0	30.07	44.0	0.0	13.01	-39.8	0	3.0	27.2	30.8	0	790	0	0	0	66.8	36.7	0.0
2018 11/10 03:00	-134.9	-58.2	3.1	0.0	30.06	43.9	0.0	13.02	-39.8	0	2.6	27.2	32.1	0	790	0	0	0	66.8	36.6	0.0
2018 11/10 03:15	-135.2	-58.3	3.0	0.0	30.06	43.8	-0.3	13.02	-39.9	0	2.7	27.2	28.5	0	790	0	0	0	66.8	36.5	0.0
2018 11/10 03:30	-135.3	-58.3	3.1	0.0	30.06	43.7	0.0	13.02	-39.6	0	2.7	27.2	28.1	0	790	0	0	0	66.8	36.5	0.0
2018 11/10 03:45	-135.3	-58.2	3.2	0.0	30.05	43.5	0.0	13.00	-39.5	0	3.0	27.2	30.2	0	790	0	0	0	66.0	36.2	0.0
2018 11/10 04:00	-135.2	-58.3	3.1	0.0	30.04	43.4	0.0	13.01	-39.8	0	2.7	27.2	29.0	0	790	0	0	0	65.3	36.2	0.0
2018 11/10 04:15	-135.4	-58.2	3.2	0.0	30.04	43.2	0.0	13.01	-39.5	0	2.4	29.9	27.1	0	790	0	0	0	64.5	36.1	0.0
2018 11/10 04:30	-135.2	-58.4	3.1	0.0	30.04	43.2	0.0	13.00	-39.8	0	2.5	29.9	26.1	0	790	0	0	0	63.9	36.0	0.0
2018 11/10 04:45	-135.3	-58.3	3.1	0.0	30.05	43.0	0.0	13.00	-39.6	0	2.5	29.0	25.0	0	790	0	0	0	63.2	35.9	0.0
2018 11/10 05:00	-135.5	-58.3	3.1	0.0	30.04	42.9	0.0	13.02	-39.5	0	2.6	29.0	25.1	0	790	0	0	0	62.7	35.8	0.0
2018 11/10 05:15	-135.3	-58.4	3.1	0.0	30.04	42.7	0.0	13.01	-39.6	0	2.7	28.1	25.0	0	790	0	0	0	63.5	35.7	0.0
2018 11/10 05:30	-135.5	-58.4	2.9	0.0	30.05	42.5	-0.3	13.01	-39.8	0	2.8	29.0	24.3	0	790	0	0	0	63.8	35.7	0.0
2018 11/10 05:45	-135.4	-58.4	3.2	0.0	30.04	42.4	-0.3	13.02	-39.6	0	2.5	28.1	23.1	0	790	0	0	0	65.0	35.4	0.0
2018 11/10 06:00	-135.7	-58.4	3.0	0.0	30.04	42.3	0.0	13.02	-39.4	0	3.0	27.2	23.0	0	790	0	0	0	65.4	35.3	0.0
2018 11/10 06:15	-135.4	-58.5	2.9	0.0	30.04	42.2	0.7	13.01	-40.0	0	2.8	28.1	21.6	0	790	0	0	0	65.7	35.2	0.0
2018 11/10 06:30	-135.5	-58.4	3.2	0.0	30.04	42.1	9.2	13.01	-39.5	0	2.7	28.1	21.3	0	790	0	0	0	65.7	35.1	0.0
2018 11/10 06:45	-135.4	-58.5	3.1	0.0	30.03	42.0	120.8	13.01	-39.8	0	2.8	28.1	20.7	0	790	0	0	0	65.7	35.0	0.0
2018 11/10 07:00	-135.8	-58.4	3.1	0.0	30.04	41.9	435.4	13.01	-39.5	0	2.8	28.1	20.0	0	790	0	0	0	65.6	34.9	0.0
2018 11/10 07:15	-135.7	-58.4	3.0	0.0	30.04	41.7	638.7	13.00	-39.4	0	2.9	29.0	19.1	0	790	0	0	0	64.4	34.7	0.0
2018 11/10 07:30	-135.7	-58.4	3.0	0.0	30.04	41.7	723.0	13.02	-39.4	0	2.7	28.1	19.9	0	790	0	0	0	63.5	34.7	0.0
2018 11/10 07:45	-135.5	-58.6	2.9	0.0	30.04	41.6	766.0	13.01	-40.0	0	2.6	29.9	20.4	0	790	0	0	0	62.9	34.5	0.0
2018 11/10 08:00	-135.5	-58.4	3.1	0.0	30.05	41.5	789.0	13.02	-39.5	0	2.5	29.0	21.5	0	790	0	0	0	61.7	34.3	0.0
2018 11/10 08:15	-135.7	-58.4	3.0	0.0	30.05	41.4	803.0	13.00	-39.4	0	2.8	28.1	23.6	0	790	0	0	0	61.8	34.3	0.0
2018 11/10 08:30	-135.8	-58.4	3.1	0.0	30.05	41.4	812.0	13.00	-39.5	0	2.6	30.8	25.3	0	790	0	0	0	63.6	34.3	0.0
2018 11/10 08:45	-135.8	-58.5	3.1	0.0	30.05	41.3	822.0	13.00	-39.5	0	2.0	32.6	27.3	0	790	0	0	0	65.3	34.2	0.0
2018 11/10 09:00	-135.7	-58.6	3.0	0.0	30.06	41.4	829.0	13.00	-40.0	0	1.5	36.2	29.0	0	790	0	0	0	65.3	34.2	0.0
2018 11/10 09:15	-135.5	-58.5	3.2	0.0	30.06	41.4	835.0	13.01	-39.6	0	1.1	38.0	30.3	0	790	0	0	0	65.3	34.2	0.0
2018 11/10 09:30	-135.8	-58.5	3.0	0.0	30.06	41.4	840.0	13.01	-39.6	0	1.9	35.3	32.4	0	790	0	0	0	65.3	34.2	0.0
2018 11/10 09:45	-135.7	-58.4	3.0	0.0	30.07	41.5	844.0	13.02	-39.4	0	2.7	33.5	32.8	0	790	0	0	0	65.3	34.2	0.0
2018 11/10 10:00	-135.7	-58.4	3.1	0.0	30.08	41.6	848.0	13.01	-39.4	0	2.8	33.5	35.0	0	790	0	0	0	65.3	34.2	0.0
2018 11/10 10:15	-135.5	-58.4	3.2	0.0	30.08	41.7	850.0	13.02	-39.6	0	2.9	33.5	36.0	0	790	0	0	0	65.3	34.2	0.0
2018 11/10 10:30	-135.4	-58.4	2.7	0.0	30.08	41.9	850.0	13.02	-39.8	0	3.1	33.5	35.9	0	790	0	0	0	70.4	40.8	0.0
2018 11/10 10:45	-135.7	-58.4	3.1	0.0	30.09	42.0	850.0	13.01	-39.5	0	3.0	33.5	36.3	0	790	0	0	0	72.8	42.1	0.0
2018 11/10 11:00	-135.5	-58.4	3.1	0.0	30.09	42.2	847.0	13.01	-39.5	0	3.3	32.6	36.3	0	790	0	0	0	75.0	43.0	0.0
2018 11/10 11:15	-135.5	-58.4	3.1	0.0	30.09	42.4	849.0	13.00	-39.6	0	3.1	32.6	36.3	0	790	0	0	0	76.8	43.9	0.0
2018 11/10 11:30	-135.5	-58.3	3.1	0.0	30.10	42.7	853.0	13.02	-39.5	0	2.9	33.5	36.3	0	790	0	0	0	77.4	44.1	0.0
2018 11/10 11:45	-135.1	-58.3	3.0	0.0	30.10	43.0	854.0	13.02	-39.8	0	2.8	33.5	36.4	0	790	0	0	0	79.4	45.1	0.0
2018 11/10 12:00	-135.4	-58.2	3.0	0.0	30.09	43.2	851.0	13.02	-39.6	0	2.2	35.3	36.6	0	790	0	0	0	80.3	45.5	0.0
2018 11/10 12:15	-135.3	-58.3	3.1	0.0	30.09	43.3	846.0	13.01	-39.6	0	1.9	38.0	36.6	0	790	0	0	0	80.2	45.8	0.0
2018 11/10 12:30	-135.1	-58.2	3.0	0.0	30.10	43.5	838.0	13.02	-39.8	0	1.4	38.0	36.7	0	790	0	0	0	80.0	46.0	0.0
2018 11/10 12:45	-135.1	-58.2	2.9	0.0	30.10	43.6	835.0	13.02	-39.8	0	1.5	38.9	37.7	0	790	0	0	0	79.6	46.0	0.0
2018 11/10 13:00	-135.2	-58.3	3.1	0.0	30.10	43.7	838.0	13.01	-39.8	0	1.5	38.9	37.2	0	790	0	0	0	80.5	46.0	0.0
2018 11/10 13:15	-135.3	-58.2	3.1	0.0	30.11	43.8	840.0	13.02	-39.5	0	2.4	35.3	36.9	0	790	0	0	0	81.2	45.9	0.0
2018 11/10 13:30	-135.1	-58.2	3.2	0.0	30.10	43.8	840.0	13.01	-39.6	0	2.3	33.5	36.9	0	790	0	0	0	81.7	45.6	0.0
2018 11/10 13:45	-135.1	-58.2	3.2	0.0	30.11	43.8	846.0	13.01	-39.6	0	1.8	35.3	35.9	0	790	0	0	0	82.1	45.2	0.0
2018 11/10 14:00	-135.3	-58.2	3.1	0.0	30.11	43.8	832.0	13.02	-39.4	0	1.8	35.3	34.8	0	790	0	0	0	81.1	44.4	0.0
2018 11/10 14:15	-135.4	-58.2	3.0	0.0	30.10	43.8	835.0	13.00	-39.6	0	1.8	35.3	35.9	0	790	0	0	0	81.0	44.2	0.0
2018 11/10 14:30	-135.1	-58.3	2.9	0.0	30.10	43.7	791.0	13.01	-39.8	0	1.7	36.2	36.3	0	790	0	0	0	80.9	44.1	0.0
2018 11/10 14:45	-135.4	-58.3	2.9	0.0	30.12	43.7	790.0	13.01	-39.6	0	1.9	35.3	35.2	0	790	0	0	0	80.1	44.0	0.0
2018 11/10 15:00	-135.4	-58.2	3.0	0.0	30.11	43.6	780.0	13.01	-39.4	0	1.9	34.4	34.9	0	790	0	0	0	79.6	43.8	0.0
2018 11/10 15:15	-135.4	-58.3	3.1	0.0	30.11	43.5	773.0	13.02	-39.6	0	2.2	32.6	34.4	0	790	0	0	0	79.0	43.4	0.0
2018 11/10 15:30	-135.3	-58.4	2.9	0.0	30.12	43.5	763.0	13.01	-39.9	0	2.3	31.7	34.6	0	790	0	0	0	78.4	43.2	0.0
2018 11/10 15:45	-135.5	-58.4	2.8	0.0	30.12	43.4	766.0	13.01	-39.6	0	2.4	30.8	34.2	0	790	0	0	0	78.4	43.2	0.0
2018 11/10 16:00	-135.4	-58.4	3.1	0.0	30.10	43.2	728.0	13.02	-39.8	0	2.8	28.1	33.9	0	790	0	0	0	75.9	42.2	0.0
2018 11/10 16:15	-135.3	-58.4	3.1	0.0	30.09	43.1	682.5	13.00	-39.8	0	3.0	27.2	33.4	0	790	0	0	0	74.8	41.9	0.0
2018 11/10 16:30	-135.3	-58.4	2.9	0.0	30.09	42.9	614.3	13.00	-39.8	0	2.9	27.2	33.1	0	790	0	0	0	74.1	41.6	0.0
2018 11/10 16:45	-135.7	-58.4	3.1	0.0	30.09	42.6	434.1	13.01	-39.5	0	3.0	26.3	32.5	0	790	0	0	0	72.9	41.3	0.0
2018 11/10 17:00	-135.7	-58.4	3.1	0.0	30.08	42.4	167.7	13.01	-39.5	0	2.9	26.3	32.2	0	790	0	0	0	74.3	41.0	0.0
2018 11/10 17:15	-135.8	-58.5	2.7	0.0	30.08	42.0	21.0	13.01	-39.6	0	3.0	25.4	31.8	0	790	0	0	0	75.3	40.6	0.0
2018 11/10 17:30	-135.5	-58.5	3.0	0.0	30.07	41.6	1.0	13.01	-40.0	0	3.0	25.4	31.7	0	790	0	0	0	75.8	40.3	0.0
2018 11/10 17:45	-135.8	-58.4	3.1	0.0	30.08	41.1	0.0	13.02	-39.5	0	2.9	25.4	31.4	0	790	0	0	0	75.8	40.3	0.0
2018 11/10 18:00	-135.8	-58.6	3.1	0.0	30.08	40.7	-0.3	13.01	-39.6	0	2.9	25.4	31.4	0	790	0	0	0	77.4	39.4	0.0
2018 11/10 18:15	-135.9	-58.6	3.1	0.0	30.07	40.2	-0.3	13.00	-39.6	0	2.8	25.4	30.9	0	790	0	0	0	78.1	39.2	0.0
2018 11/10 18:30	-135.8	-58.6	3.1	0.0	30.07	39.8	0.0	13.01	-39.6	0	2.8	25.4	30.9	0	790	0	0	0	78.5	38.8	0.0
2018 11/10 18:45	-136.0	-58.6	3.1	0.0	30.07	39.4	0.0	13.01	-39.6	0	3.0	24.5	30.7	0	790	0	0	0	78.6	38.5	0.0
2018 11/10 19:00	-136.0	-58.7	2.9	0.0	30.06	39.0	-0.3	13.01	-39.9	0	2.8	25.4	31.2	0	790	0	0	0	78.0	38.4	0.0
2018 11/10 19:15	-135.9	-58.8	3.0	0.0	30.06	38.6	0.0	13.01	-39.9	0	2.8	25.4	31.2	0	790	0	0	0	76.7	37.9	0.0
2018 11/10 19:30	-135.9	-58.7	3.1	0.0	30.07	38.4	0.0	13.01	-39.8	0	2.9	25.4	31.1	0	790	0	0	0	75.7	37.8	0.0
2018 11/10 19:45	-136.3	-58.7	2.7	0.0	30.07	37.9	0.0	13.01	-39.6	0	2.9	25.4	31.4	0	790	0	0	0	74.7	37.6	0.0
2018 11/10 20:00	-136.2	-58.8	2.9	0.0	30.07	37.7	-0.3	13.01	-40.0	0	3.0	24.5	30.9	0	790	0	0	0	73.9	37.5	0.0
2018 11/10 20:15	-136.2	-58.7	3.0	0.0	30.06	37.5	-0.3	13.01	-39.5	0	3.0	24.5	30.5	0	790	0	0	0	73.6	37.4	0.0
2018 11/10 20:30	-136.3	-58.8	3.0	0.0	30.06	37.2	0.0	13.01	-39.6	0	3.0	24.5	30.7	0	790	0	0	0	72.2	37.4	0.0
2018 11/10 20:45	-136.3	-58.7	2.9	0.0	30.06	37.0	0.0	13.00	-39.3	0	3.0	24.5	30.5	0	790	0	0	0	72.5	37.1	0.0
2018 11/10 21:00	-136.0	-58.8	2.7	0.0	30.06	36.8	0.0	13.01	-39.8	0	3.0	24.5	30.6	0	790	0	0	0	74.3	37.0	0.0
2018 11/10 21:15	-136.3	-58.9	3.1	0.0	30.06	36.6	0.0	13.01	-39.8	0	2.9	24.5	30.4	0	790	0	0	0	75.3	36.8	0.0
2018 11/10 21:30	-136.4	-58.9	2.7	0.0	30.06	36.4	0.0	13.01	-39.6	0	2.9	24.5	30.3	0	790	0	0	0	75.8	36.7	0.0
2018 11/10 21:45	-136.4	-58.9	2.7	0.0	30.06	36.3	0.0	13.01	-39.6	0	2.9	24.5	30.2	0	0	0	0	0	76.6	36.6	0.0
2018 11/10 22:00	-136.3	-58.9	2.9	0.0	30.06	36.3	0.0	13.01	-40.0	0	3.1	23.6	29.9	0	0	0	0	0	76.4	36.5	0.0
2018 11/10 22:15	-136.4	-58.8	3.0	0.0	30.07	36.1	0.0	13.00	-39.5	0	3.0	23.6	29.7	0	0	0	0	0	76.0	36.3	0.0
2018 11/10 22:30	-136.2	-58.9	2.9	0.0	30.06	36.0	0.0	13.00	-40.0	0	2.9	23.6	29.4	0	0	0	0	0	75.7	36.2	0.0
2018 11/10 22:45	-136.3	-58.8	2.9	0.0	30.07	36.0	-0.3	13.01	-39.4	0	2.9	23.6	29.5	0	0	0	0	0	75.0	36.1	0.0
2018 11/10 23:00	-136.3	-58.9	3.0	0.0	30.06	36.0	0.0	13.00	-39.9	0	3.1	23.6	29.6	0	0	0	0	0	72.5	35.9	0.0
2018 11/10 23:15	-136.2	-58.9	3.0	0.0	30.05	35.8	0.0	13.01	-39.8	0	2.8	24.5	29.9	0	0	0	0	0	71.3	35.8	0.0
2018 11/10 23:30	-136.4	-58.8	3.0	0.0	30.05	35.9	0.0	13.00	-39.5	0	3.0	24.5	29.9	0	0	0	0	0	70.1	35.7	0.0
2018 11/10 23:45	-136.2	-58.9	2.9	0.0	30.06	35.8	0.0	13.00	-40.0	0	2.9	24.5	29.9	0	0	0	0	0	69.3	35.7	0.0
2018 11/11 00:00	-136.5	-58.9	3.1	0.0	30.07	35.6	0.0	13.00	-39.6	0	3.0	24.5	30.0	0	0	0	0	0	67.7	35.5	0.0
2018 11/11 00:15	-136.2	-58.9	2.9	0.0	30.07	35.6	0.0	13.00	-39.8	0	3.1	24.5	30.0	0	0	0	0	0	67.5	35.5	0.0
2018 11/11 00:30	-136.4	-58.8	3.0	0.0	30.08	35.5	0.0	13.00	-39.4	0	3.0	24.5	30.3	0	0	0	0	0	67.5	35.5	0.0
2018 11/11 00:45	-136.4	-58.9	2.8	0.0	30.08	35.4	0.0	13.01	-39.6	0	3.1	24.5	30.2	0	0	0	0	0	67.5	35.5	0.0
2018 11/11 01:00	-136.3	-58.9	3.1	0.0	30.07	35.4	0.0	13.01	-39.6	0	3.0	24.5	29.9	0	0	0	0	0	64.6	35.3	0.0
2018 11/11 01:15	-136.5	-58.9	2.7	0.0	30.07	35.3	0.0	13.00	-39.6	0	3.0	24.5	29.6	0	0	0	0	0	64.6	35.3	0.0
2018 11/11 01:30	-136.2	-58.9	3.0	0.0	30.07	35.2	0.0	13.00	-39.8	0	2.9	23.6	29.0	0	0	0	0	0	64.6	35.3	0.0
2018 11/11 01:45	-136.3	-58.9	3.1	0.0	30.06	35.2	0.0	13.00	-39.8	0	3.1	22.7	28.4	0	0	0	0	0	66.4	35.0	0.0
2018 11/11 02:00	-136.4	-58.8	3.0	0.0	30.06	35.0	0.0	13.01	-39.5	0	2.9	22.7	27.9	0	0	0	0	0	66.8	35.0	0.0
2018 11/11 02:15	-136.2	-58.9	2.8	0.0	30.07	35.0	0.0	13.01	-39.8	0	3.1	21.8	27.9	0	0	0	0	0	68.4	34.8	0.0
2018 11/11 02:30	-136.2	-58.9	2.8	0.0	30.07	34.8	0.0	13.01	-39.8	0	3.0	22.7	27.9	0	0	0	0	0	68.4	34.8	0.0
2018 11/11 02:45	-136.3	-58.9	2.9	0.0	30.07	34.6	0.0	13.00	-40.0	0	2.9	22.7	27.7	0	0	0	0	0	68.4	34.8	0.0
2018 11/11 03:00	-136.4	-58.9	3.0	0.0	30.06	34.6	0.0	13.00	-39.6	0	3.1	21.8	27.6	0	0	0	0	0	68.4	34.8	0.0
2018 11/11 03:15	-136.4	-58.8	2.8	0.0	30.06	34.4	0.0	13.00	-39.3	0	3.0	21.8	27.5	0	0	0	0	0	68.4	34.8	0.0
2018 11/11 03:30	-136.5	-58.9	2.7	0.0	30.07	34.1	0.0	13.00	-39.6	0	3.0	21.8	27.6	0	0	0	0	0	68.4	34.8	0.0
2018 11/11 03:45	-136.4	-58.9	2.8	0.0	30.06	33.9	0.0	13.00	-39.3	0	3.1	21.8	27.5	0	0	0	0	0	68.4	34.8	0.0
2018 11/11 04:00	-136.4	-58.9	2.9	0.0	30.05	33.7	0.0	13.00	-39.3	0	3.1	21.8	27.5	0	0	0	0	0	68.4	34.8	0.0
2018 11/11 04:15	-136.5	-58.9	2.9	0.0	30.05	33.5	0.0	13.00	-39.6	0	3.1	21.8	27.3	0	0	0	0	0	68.4	34.8	0.0
2018 11/11 04:30	-136.3	-58.9	2.8	0.0	30.04	33.3	0.0	13.00	-39.8	0	3.0	21.8	27.5	0	0	0	0	0	68.4	34.8	0.0
2018 11/11 04:45	-136.4	-59.0	2.9	0.0	30.04	33.1	0.0	13.01	-40.0	0	3.0	21.8	27.5	0	0	0	0	0	68.4	34.8	0.0
2018 11/11 05:00	-136.5	-58.9	3.0	0.0	30.05	32.9	0.0	13.01	-39.6	0	3.1	21.8	27.1	0	0	0	0	0	68.4	34.8	0.0
2018 11/11 05:15	-136.5	-59.0	2.9	0.0	30.05	32.6	0.0	13.00	-40.0	0	3.1	21.8	27.2	0	0	0	0	0	68.4	34.8	0.0
2018 11/11 05:30	-136.7	-58.9	2.7	0.0	30.05	32.4	0.0	13.01	-39.6	0	2.9	22.7	27.6	0	0	0	0	0	68.4	34.8	0.0
2018 11/11 05:45	-136.4	-59.0	2.9	0.0	30.04	32.3	0.0	13.01	-39.8	0	2.9	22.7	27.5	0	0	0	0	0	68.4	34.8	0.0
2018 11/11 06:00	-136.4	-59.0	3.0	0.0	30.03	32.2	0.0	13.00	-39.8	0	2.9	22.7	27.6	0	0	0	0	0	68.4	34.8	0.0
2018 11/11 06:15	-136.7	-58.9	3.1	0.0	30.03	32.0	0.7	13.00	-39.5	0	3.1	21.8	27.5	0	0	0	0	0	68.4	34.8	0.0
2018 11/11 06:30	-136.7	-59.0	3.0	0.0	30.04	31.8	7.5	13.01	-39.6	0	3.0	21.8	27.5	0	0	0	0	0	68.4	34.8	0.0
2018 11/11 06:45	-136.7	-58.9	2.7	0.0	30.04	31.7	105.9	13.00	-39.6	0	3.1	21.8	27.5	0	0	0	0	0	68.4	34.8	0.0
2018 11/11 07:00	-136.6	-58.9	3.1	0.0	30.04	31.6	395.8	13.00	-39.6	0	3.1	21.8	27.5	0	0	0	0	0	68.4	34.8	0.0
2018 11/11 07:15	-136.5	-59.0	3.0	0.0	30.05	31.4	629.4	13.00	-39.8	0	3.1	21.8	27.6	0	0	0	0	0	68.4	34.8	0.0
2018 11/11 07:30	-136.6	-59.0	2.9	0.0	30.07	31.4	715.0	13.01	-40.0	0	3.0	22.7	27.8	0	0	0	0	0	68.4	34.8	0.0
2018 11/11 07:45	-136.5	-59.1	2.8	0.0	30.07	31.2	759.0	13.01	-40.0	0	3.1	22.7	28.2	0	0	0	0	0	68.4	34.8	0.0
2018 11/11 08:00	-136.5	-59.1	3.0	0.0	30.07	31.0	783.0	13.00	-39.8	0	3.3	22.7	28.7	0	0	0	0	0	68.4	34.8	0.0
2018 11/11 08:15	-136.6	-59.0	2.7	0.0	30.08	31.0	796.0	13.00	-39.8	0	3.0	23.6	29.0	0	0	0	0	0	68.4	34.8	0.0
2018 11/11 08:30	-136.6	-59.0	3.1	0.0	30.08	30.9	807.0	13.00	-39.8	0	3.1	24.5	30.0	0	0	0	0	0	68.4	34.8	0.0
2018 11/11 08:45	-136.6	-59.0	2.8	0.0	30.09	30.9	818.0	13.01	-39.8	0	2.8	26.3	30.3	0	0	0	0	0	68.4	34.8	0.0
2018 11/11 09:00	-136.7	-59.1	2.9	0.0	30.09	30.8	825.0	13.00	-39.9	0	2.5	28.1	30.8	0	0	0	0	0	68.4	34.8	0.0
2018 11/11 09:15	-136.6	-59.0	2.8	0.0	30.09	30.8	831.0	13.00	-39.8	0	2.5	29.0	31.3	0	0	0	0	0	68.4	34.8	0.0
2018 11/11 09:30	-136.8	-59.1	3.1	0.0	30.08	31.0	837.0	13.00	-39.6	0	2.9	27.2	31.5	0	0	0	0	0	68.4	34.8	0.0
2018 11/11 09:45	-136.8	-58.9	3.2	0.0	30.09	31.0	840.0	13.01	-39.5	0	3.1	27.2	31.7	0	0	0	0	0	68.4	34.8	0.0
2018 11/11 10:00	-136.5	-59.1	2.9	0.0	30.08	31.0	845.0	13.00	-40.0	0	3.1	27.2	32.1	0	0	0	0	0	68.4	34.8	0.0
2018 11/11 10:15	-136.8	-58.9	2.8	0.0	30.09	31.2	847.0	13.00	-39.6	0	3.1	27.2	32.4	0	0	0	0	0	68.4	34.8	0.0
2018 11/11 10:30	-136.7	-59.1	2.9	0.0	30.10	31.2	847.0	13.00	-39.9	0	2.8	28.1	32.5	0	0	0	0	0	68.4	34.8	0.0
2018 11/11 10:45	-136.7	-59.1	3.0	0.0	30.10	31.4	847.0	13.00	-39.8	0	3.2	28.1	33.2	0	0	0	0	0	68.4	34.8	0.0
2018 11/11 11:00	-136.8	-59.0	2.8	0.0	30.10	31.6	844.0	13.00	-39.6	0	3.2	29.0	33.7	0	0	0	0	0	68.4	34.8	0.0
2018 11/11 11:15	-136.5	-58.9	3.1	0.0	30.11	31.6	845.0	13.00	-39.5	0	3.1	29.9	34.5	0	0	0	0	0	68.4	34.8	0.0
2018 11/11 11:30	-136.5	-58.9	3.1	0.0	30.11	31.8	850.0	13.00	-39.6	0	3.4	29.9	34.6	0	0	0	0	0	68.4	34.8	0.0
2018 11/11 11:45	-136.7	-58.9	2.9	0.0	30.10	32.0	850.0	13.00	-39.4	0	3.1	30.8	35.4	0	0	0	0	0	68.4	34.8	0.0
2018 11/11 12:00	-136.5	-59.0	2.9	0.0	30.11	32.0	847.0	13.00	-40.0	0	2.6	35.3	36.1	0	0	0	0	0	68.4	34.8	0.0
2018 11/11 12:15	-136.5	-58.9	3.1	0.0	30.10	32.2	842.0	13.01	-39.5	0	2.1	38.0	36.9	0	0	0	0	0	68.4	34.8	0.0
2018 11/11 12:30	-136.7	-58.9	2.8	0.0	30.10	32.4	835.0	13.00	-39.6	0	2.2	38.0	37.3	0	0	0	0	0	68.4	34.8	0.0
2018 11/11 12:45	-136.7	-58.9	2.9	0.0	30.11	32.4	832.0	13.00	-39.5	0	2.1	37.1	37.6	0	0	0	0	0	68.4	34.8	0.0
2018 11/11 13:00	-136.5	-58.9	3.0	0.0	30.10	32.6	836.0	13.00	-39.4	0	1.9	38.9	37.7	0	0	0	0	0	68.4	34.8	0.0
2018 11/11 13:15	-136.4	-58.9	3.2	0.0	30.12	32.6	839.0	13.00	-39.6	0	2.0	38.0	38.0	0	0	0	0	0	68.4	34.8	0.0
2018 11/11 13:30	-136.7	-58.9	2.9	0.0	30.12	32.6	839.0	13.01	-39.5	0	2.8	34.4	38.1	0	0	0	0	0	68.4	34.8	0.0
2018 11/11 13:45	-136.0	-58.8	2.7	0.0	30.12	32.8	837.0	13.01	-39.8	0	2.1	37.1	38.4	0	0	0	0	0	68.4	34.8	0.0
2018 11/11 14:00	-135.8	-58.7	3.1	0.0	30.12	32.9	834.0	13.02	-39.6	0	2.2	37.1	38.6	0	0	0	0	0	68.4	34.8	0.0
2018 11/11 14:15	-135.7	-58.7	3.0	0.0	30.13	33.1	838.0	13.00	-40.1	0	1.8	37.1	38.5	0	0	0	0	0	68.4	34.8	0.0
2018 11/11 14:30	-135.9	-58.6	3.1	0.0	30.13	33.3	789.0	13.00	-39.5	0	2.1	36.2	37.9	0	0	0	0	0	68.4	34.8	0.0
2018 11/11 14:45	-135.7	-58.7	3.0	0.0	30.13	33.5	783.0	13.00	-39.8	0	2.0	36.2	37.2	0	0	0	0	0	68.4	34.8	0.0
2018 11/11 15:00	-135.9	-58.6	3.0	0.0	30.14	33.7	779.0	13.00	-39.5	0	2.2	35.3	37.1	0	0	0	0	0	68.4	34.8	0.0
2018 11/11 15:15	-136.0	-58.7	3.1	0.0	30.14	33.9	773.0	13.00	-39.5	0	1.9	36.2	37.1	0	0	0	0	0	68.4	34.8	0.0
2018 11/11 15:30	-136.0	-58.7	3.0	0.0	30.14	34.1	757.0	13.00	-39.5	0	2.4	33.5	36.6	0	0	0	0	0	68.4	34.8	0.0
2018 11/11 15:45	-135.9	-58.7	2.9	0.0	30.15	34.3	745.0	13.01	-40.0	0	2.2	33.5	36.2	0	0	0	0	0	68.4	34.8	0.0
2018 11/11 16:00	-135.8	-58.7	3.1	0.0	30.15	34.4	698.6	13.00	-39.8	0	2.8	29.9	35.5	0	0	0	0	0	68.4	34.8	0.0
2018 11/11 16:15	-135.9	-58.7	2.7	0.0	30.15	34.5	627.3	13.00	-39.8	0	3.0	29.0	34.6	0	0	0	0	0	68.4	34.8	0.0
2018 11/11 16:30	-136.2	-58.7	3.0	0.0	30.15	34.6	540.1	13.00	-39.5	0	2.9	28.1	34.2	0	0	0	0	0	68.4	34.8	0.0
2018 11/11 16:45	-136.2	-58.7	2.8	0.0	30.16	34.6	383.6	13.00	-39.6	0	2.7	28.1	33.3	0	0	0	0	0	68.4	34.8	0.0
2018 11/11 17:00	-136.2	-58.7	3.0	0.0	30.16	34.6	142.6	13.00	-39.3	0	3.0	26.3	32.7	0	0	0	0	0	68.4	34.8	0.0
2018 11/11 17:15	-136.2	-58.7	3.1	0.0	30.16	34.6	11.5	13.01	-39.5	0	3.0	26.3	32.3	0	0	0	0	0	68.4	34.8	0.0
2018 11/11 17:30	-135.9	-58.7	3.1	0.0	30.17	34.6	1.0	13.01	-39.8	0	2.9	26.3	31.7	0	0	0	0	0	68.4	34.8	0.0
2018 11/11 17:45	-136.3	-58.7	3.0	0.0	30.17	34.5	0.0	13.00	-39.5	0	2.8	26.3	31.7	0	0	0	0	0	78.3	38.8	0.0
2018 11/11 18:00	-136.2	-58.9	2.9	0.0	30.17	34.4	0.0	13.00	-40.1	0	2.8	26.3	31.5	0	0	0	0	0	77.9	38.6	0.0
2018 11/11 18:15	-136.0	-58.8	2.9	0.0	30.18	34.3	0.0	13.00	-39.8	0	2.9	26.3	31.5	0	0	0	0	0	77.9	38.6	0.0
2018 11/11 18:30	-136.2	-58.8	3.1	0.0	30.18	34.1	-0.3	13.00	-39.8	0	2.8	26.3	31.7	0	0	0	0	0	77.9	38.6	0.0
2018 11/11 18:45	-136.4	-58.8	2.8	0.0	30.17	34.1	0.0	13.00	-39.6	0	2.8	26.3	31.1	0	0	0	0	0	74.5	37.5	0.0
2018 11/11 19:00	-136.4	-58.8	3.1	0.0	30.19	33.9	0.0	13.00	-39.5	0	2.9	25.4	30.8	0	0	0	0	0	77.2	37.4	0.0
2018 11/11 19:15	-136.2	-58.9	2.9	0.0	30.18	33.9	0.0	13.00	-40.1	0	2.8	25.4	30.3	0	0	0	0	0	79.0	37.0	0.0
2018 11/11 19:30	-136.2	-58.9	2.9	0.0	30.18	33.7	0.0	13.00	-40.1	0	3.0	24.5	30.3	0	0	0	0	0	79.4	36.9	0.0
2018 11/11 19:45	-136.0	-58.8	2.8	0.0	30.18	33.7	0.0	13.00	-39.8	0	2.7	24.5	30.6	0	0	0	0	0	79.4	36.9	0.0
2018 11/11 20:00	-136.3	-58.8	3.0	0.0	30.18	33.5	0.0	13.00	-39.5	0	3.0	24.5	30.3	0	0	0	0	0	79.4	36.9	0.0
2018 11/11 20:15	-136.0	-58.8	2.8	0.0	30.19	33.4	0.0	13.00	-39.8	0	3.0	24.5	30.4	0	0	0	0	0	79.4	36.9	0.0
2018 11/11 20:30	-136.3	-58.9	3.1	0.0	30.18	33.3	-0.3	13.00	-39.6	0	2.8	24.5	29.9	0	0	0	0	0	79.4	36.9	0.0
2018 11/11 20:45	-136.3	-58.8	3.0	0.0	30.18	33.2	0.0	13.00	-39.5	0	2.9	24.5	30.0	0	0	0	0	0	79.4	36.9	0.0
2018 11/11 21:00	-136.3	-58.9	3.1	0.0	30.18	33.2	-0.3	13.00	-39.6	0	2.8	24.5	29.9	0	0	0	0	0	77.4	36.2	0.0
2018 11/11 21:15	-136.0	-58.9	2.8	0.0	30.20	33.2	0.0	13.00	-39.8	0	2.9	24.5	29.7	0	0	0	0	0	77.4	36.2	0.0
2018 11/11 21:30	-136.0	-58.8	2.9	0.0	30.20	33.2	0.0	13.00	-39.8	0	3.0	24.5	29.8	0	0	0	0	0	77.4	36.2	0.0
2018 11/11 21:45	-136.0	-58.9	3.0	0.0	30.20	33.1	0.0	13.00	-39.8	0	3.1	24.5	30.0	0	0	0	0	0	77.4	36.2	0.0
2018 11/11 22:00	-136.0	-58.9	3.1	0.0	30.19	33.1	0.0	13.00	-39.8	0	3.0	24.5	29.7	0	0	0	0	0	77.4	36.2	0.0
2018 11/11 22:15	-136.0	-58.8	2.9	0.0	30.20	33.0	0.0	13.01	-39.8	0	3.0	24.5	29.5	0	0	0	0	0	77.4	36.2	0.0
2018 11/11 22:30	-136.3	-58.8	2.8	0.0	30.20	32.9	0.0	13.01	-39.3	0	3.1	24.5	29.6	0	0	0	0	0	77.4	36.2	0.0
2018 11/11 22:45	-136.4	-58.8	2.8	0.0	30.20	32.9	0.0	13.01	-39.6	0	3.1	24.5	29.4	0	0	0	0	0	77.4	36.2	0.0
2018 11/11 23:00	-136.2	-58.9	3.0	0.0	30.20	32.9	0.0	13.00	-39.8	0	3.0	24.5	29.3	0	0	0	0	0	77.4	36.2	0.0
2018 11/11 23:15	-136.2	-58.8	2.7	0.0	30.21	32.8	0.0	13.01	-39.8	0	3.0	24.5	29.5	0	0	0	0	0	77.4	36.2	0.0
2018 11/11 23:30	-136.4	-58.8	2.9	0.0	30.20	32.6	0.0	13.00	-39.6	0	3.0	24.5	29.4	0	0	0	0	0	77.4	36.2	0.0
2018 11/11 23:45	-136.3	-58.9	2.9	0.0	30.18	32.7	-0.3	13.00	-40.0	0	3.1	23.6	29.0	0	0	0	0	0	77.4	36.2	0.0
2018 11/12 00:00	-136.2	-58.9	3.1	0.0	30.19	32.7	0.0	13.00	-39.8	0	3.0	23.6	28.6	0	0	0	0	0	77.4	36.2	0.0
2018 11/12 00:15	-136.2	-58.8	3.1	0.0	30.19	32.6	-0.3	13.00	-39.6	0	3.2	22.7	28.5	0	0	0	0	0	77.4	36.2	0.0
2018 11/12 00:30	-136.4	-58.8	2.7	0.0	30.19	32.6	0.0	13.00	-39.6	0	3.2	22.7	28.1	0	0	0	0	0	77.4	36.2	0.0
2018 11/12 00:45	-136.4	-58.9	3.0	0.0	30.19	32.4	0.0	13.00	-39.6	0	3.0	22.7	27.7	0	0	0	0	0	77.4	36.2	0.0
2018 11/12 01:00	-136.4	-58.9	2.8	0.0	30.19	32.4	0.0	13.01	-39.6	0	3.1	21.8	27.5	0	0	0	0	0	77.4	36.2	0.0
2018 11/12 01:15	-136.2	-58.8	3.1	0.0	30.18	32.4	-0.3	13.00	-39.6	0	3.1	21.8	27.2	0	0	0	0	0	77.4	36.2	0.0
2018 11/12 01:30	-136.2	-58.9	2.7	0.0	30.18	32.2	0.0	13.00	-39.8	0	3.1	21.8	27.0	0	0	0	0	0	77.4	36.2	0.0
2018 11/12 01:45	-136.2	-58.8	3.1	0.0	30.18	32.3	-0.3	13.00	-39.8	0	3.0	21.8	27.0	0	0	0	0	0	77.4	36.2	0.0
2018 11/12 02:00	-136.3	-58.8	3.0	0.0	30.18	32.0	0.0	13.00	-39.4	0	3.1	21.8	27.0	0	0	0	0	0	77.4	36.2	0.0
2018 11/12 02:15	-136.2	-58.9	3.0	0.0	30.17	32.0	0.0	13.01	-39.8	0	3.1	21.8	27.0	0	0	0	0	0	77.4	36.2	0.0
2018 11/12 02:30	-136.2	-58.9	3.0	0.0	30.18	32.0	0.0	13.00	-39.8	0	3.1	21.8	27.1	0	0	0	0	0	77.4	36.2	0.0
2018 11/12 02:45	-136.2	-58.9	2.7	0.0	30.17	32.1	0.0	13.00	-39.8	0	3.1	21.8	27.2	0	0	0	0	0	77.4	36.2	0.0
2018 11/12 03:00	-136.3	-58.9	2.8	0.0	30.18	32.0	0.0	13.00	-40.1	0	3.1	21.8	26.9	0	0	0	0	0	77.4	36.2	0.0
2018 11/12 03:15	-136.5	-58.9	3.0	0.0	30.18	32.0	0.0	13.01	-39.5	0	3.1	21.8	26.8	0	0	0	0	0	77.4	36.2	0.0
2018 11/12 03:30	-136.3	-58.9	2.9	0.0	30.17	32.0	0.0	13.00	-39.9	0	3.1	21.8	26.7	0	0	0	0	0	77.4	36.2	0.0
2018 11/12 03:45	-136.3	-58.9	3.1	0.0	30.18	31.9	-0.3	13.00	-39.6	0	3.0	21.8	26.6	0	0	0	0	0	77.4	36.2	0.0
2018 11/12 04:00	-136.4	-58.8	2.9	0.0	30.17	31.8	0.0	13.01	-39.5	0	3.2	20.9	26.6	0	0	0	0	0	77.4	36.2	0.0
2018 11/12 04:15	-136.3	-58.9	2.9	0.0	30.17	31.8	0.0	13.00	-39.8	0	3.1	20.9	26.6	0	0	0	0	0	77.4	36.2	0.0
2018 11/12 04:30	-136.5	-58.9	2.9	0.0	30.17	31.9	0.0	13.00	-39.3	0	3.2	20.9	26.6	0	0	0	0	0	77.4	36.2	0.0
2018 11/12 04:45	-136.3	-58.9	2.7	0.0	30.17	32.0	0.0	13.00	-39.8	0	3.3	20.9	26.4	0	0	0	0	0	77.4	36.2	0.0
2018 11/12 05:00	-136.3	-58.9	2.9	0.0	30.17	32.0	0.0	13.00	-39.8	0	3.1	20.9	26.1	0	0	0	0	0	77.4	36.2	0.0
2018 11/12 05:15	-136.5	-58.9	2.9	0.0	30.18	32.0	0.0	13.00	-39.6	0	3.1	20.9	26.0	0	0	0	0	0	77.4	36.2	0.0
2018 11/12 05:30	-136.4	-58.9	3.1	0.0	30.19	31.8	-0.3	13.00	-39.6	0	3.1	20.9	25.9	0	0	0	0	0	77.4	36.2	0.0
2018 11/12 05:45	-136.3	-58.9	2.8	0.0	30.18	31.8	0.0	13.00	-39.8	0	3.0	20.9	25.7	0	0	0	0	0	77.4	36.2	0.0
2018 11/12 06:00	-136.5	-58.9	3.1	0.0	30.19	31.7	0.0	13.00	-39.6	0	3.2	20.0	25.5	0	0	0	0	0	77.4	36.2	0.0
2018 11/12 06:15	-136.3	-58.9	2.7	0.0	30.19	31.6	0.7	13.00	-39.8	0	3.3	20.0	25.7	0	0	0	0	0	77.4	36.2	0.0
2018 11/12 06:30	-136.3	-58.9	2.8	0.0	30.19	31.7	5.4	13.00	-39.8	0	3.2	20.0	25.7	0	0	0	0	0	77.4	36.2	0.0
2018 11/12 06:45	-136.3	-58.9	3.0	0.0	30.18	31.7	88.3	13.00	-39.8	0	3.2	20.0	25.7	0	0	0	0	0	77.4	36.2	0.0
2018 11/12 07:00	-136.7	-58.9	2.7	0.0	30.19	31.6	379.6	13.01	-39.6	0	3.1	20.9	25.8	0	0	0	0	0	77.4	36.2	0.0
2018 11/12 07:15	-136.4	-58.9	3.1	0.0	30.19	31.6	580.5	13.01	-39.6	0	3.1	20.9	25.9	0	0	0	0	0	77.4	36.2	0.0
2018 11/12 07:30	-136.4	-58.9	2.9	0.0	30.20	31.7	613.1	13.00	-40.0	0	3.1	20.9	26.1	0	0	0	0	0	77.4	36.2	0.0
2018 11/12 07:45	-136.3	-58.9	2.7	0.0	30.20	31.9	706.0	13.01	-39.8	0	3.1	21.8	26.3	0	0	0	0	0	77.4	36.2	0.0
2018 11/12 08:00	-136.3	-58.9	3.0	0.0	30.20	32.0	777.0	13.01	-39.8	0	3.1	22.7	27.0	0	0	0	0	0	77.4	36.2	0.0
2018 11/12 08:15	-136.4	-58.8	3.0	0.0	30.21	32.0	805.0	13.00	-39.3	0	3.2	23.6	27.9	0	0	0	0	0	77.4	36.2	0.0
2018 11/12 08:30	-136.4	-58.9	3.1	0.0	30.22	32.2	805.0	13.01	-39.6	0	3.2	25.4	29.4	0	0	0	0	0	77.4	36.2	0.0
2018 11/12 08:45	-136.5	-58.9	2.7	0.0	30.22	32.3	831.0	13.01	-39.6	0	2.6	29.9	31.1	0	0	0	0	0	77.4	36.2	0.0
2018 11/12 09:00	-136.3	-58.8	3.0	0.0	30.23	32.4	838.0	13.01	-39.5	0	2.5	30.8	32.3	0	0	0	0	0	77.4	36.2	0.0
2018 11/12 09:15	-135.9	-58.7	4.0	0.0	30.23	32.6	844.0	13.00	-39.9	0	2.4	32.6	32.5	0	0	0	0	0	60.0	32.3	0.0
2018 11/12 09:33	-999	-999	-999	-999	-999	-999	-999	-999	-999	-999	2.9	30.8	33.6						59.7	33.5	0.0
2018 11/12 09:45	-999	-999	-999	-999	-999	-999	-999	-999	-999	-999	3.0	29.9	33.7						59.5	34.7	0.0
2018 11/12 10:01	-999	-999	-999	-999	-999	-999	-999	-999	-999	-999	3.0	29.0	33.4						59.3	35.8	0.0
2018 11/12 10:18	-999	-999	-999	-999	-999	-999	-999	-999	-999	-999	3.2	28.1	33.0						59.0	36.3	0.0
2018 11/12 10:33	-999	-999	-999	-999	-999	-999	-999	-999	-999	-999	3.2	29.0	33.4						58.6	37.2	0.0
2018 11/12 10:45	-999	-999	-999	-999	-999	-999	-999	-999	-999	-999	3.4	29.0	33.3						58.4	37.8	0.0
2018 11/12 11:01	-999	-999	-999	-999	-999	-999	-999	-999	-999	-999	3.1	29.9	34.2						58.3	38.9	0.0
2018 11/12 11:17	-999	-999	-999	-999	-999	-999	-999	-999	-999	-999	3.1	30.8	34.5						58.0	40.2	0.0
2018 11/12 11:30	-999	-999	-999	-999	-999	-999	-999	-999	-999	-999	3.1	30.8	34.6						57.9	41.1	0.0
2018 11/12 11:45	-999	-999	-999	-999	-999	-999	-999	-999	-999	-999	3.2	30.8	35.7						57.8	41.9	0.0
2018 11/12 12:01	-999	-999	-999	-999	-999	-999	-999	-999	-999	-999	2.9	31.7	35.4						57.7	42.4	0.0
2018 11/12 12:17	-999	-999	-999	-999	-999	-999	-999	-999	-999	-999	2.7	32.6	35.9						57.5	42.6	0.0
2018 11/12 12:33	-999	-999	-999	-999	-999	-999	-999	-999	-999	-999	2.3	35.3	36.7						57.3	42.7	0.0
2018 11/12 12:45	-999	-999	-999	-999	-999	-999	-999	-999	-999	-999	1.9	36.2	37.0						57.3	42.7	0.0
2018 11/12 13:01	-999	-999	-999	-999	-999	-999	-999	-999	-999	-999	2.0	38.0	37.7						57.2	43.0	0.0
2018 11/12 13:17	-999	-999	-999	-999	-999	-999	-999	-999	-999	-999	2.0	36.2	37.9						57.3	43.4	0.0
2018 11/12 13:33	-999	-999	-999	-999	-999	-999	-999	-999	-999	-999	2.6	35.3	38.4						57.2	43.8	0.0
2018 11/12 13:45	-999	-999	-999	-999	-999	-999	-999	-999	-999	-999	2.4	37.1	38.8						57.0	43.9	0.0
2018 11/12 14:01	-999	-999	-999	-999	-999	-999	-999	-999	-999	-999	2.2	37.1	39.3						56.9	44.0	0.0
2018 11/12 14:17	-999	-999	-999	-999	-999	-999	-999	-999	-999	-999	2.4	38.0	39.8						56.7	44.1	0.0
2018 11/12 14:30	-999	-999	-999	-999	-999	-999	-999	-999	-999	-999	2.4	37.1	39.1						56.6	44.1	0.0
2018 11/12 14:45	-999	-999	-999	-999	-999	-999	-999	-999	-999	-999	2.4	38.0	38.6						56.4	43.9	0.0
2018 11/12 15:01	-999	-999	-999	-999	-999	-999	-999	-999	-999	-999	2.2	38.0	38.2						56.1	43.4	0.0
2018 11/12 15:17	-999	-999	-999	-999	-999	-999	-999	-999	-999	-999	2.4	36.2	37.9						55.7	43.2	0.0
2018 11/12 15:33	-999	-999	-999	-999	-999	-999	-999	-999	-999	-999	2.6	35.3	37.8						55.2	42.7	0.0
2018 11/12 15:45	-999	-999	-999	-999	-999	-999	-999	-999	-999	-999	2.8	34.4	37.7						54.8	42.3	0.0
2018 11/12 16:01	-999	-999	-999	-999	-999	-999	-999	-999	-999	-999	2.9	33.5	37.6						54.1	41.9	0.0
2018 11/12 16:17	-999	-999	-999	-999	-999	-999	-999	-999	-999	-999	2.8	32.6	37.0						53.3	41.5	0.0
2018 11/12 16:33	-999	-999	-999	-999	-999	-999	-999	-999	-999	-999	3.1	32.6	37.1						52.5	41.1	0.0
2018 11/12 16:45	-999	-999	-999	-999	-999	-999	-999	-999	-999	-999	2.8	31.7	36.9						52.0	40.7	0.0
2018 11/12 17:01	-999	-999	-999	-999	-999	-999	-999	-999	-999	-999	3.0	31.7	36.2						51.2	40.3	0.0
2018 11/12 17:18	-999	-999	-999	-999	-999	-999	-999	-999	-999	-999	3.1	30.8	36.1						50.4	39.8	0.0
2018 11/12 17:30	-999	-999	-999	-999	-999	-999	-999	-999	-999	-999	3.0	30.8	35.8						50.0	39.6	0.0
2018 11/12 17:45	-999	-999	-999	-999	-999	-999	-999	-999	-999	-999	2.9	30.8	35.4						49.3	39.2	0.0
2018 11/12 18:01	-999	-999	-999	-999	-999	-999	-999	-999	-999	-999	3.1	29.9	35.2						48.7	38.9	0.0
2018 11/12 18:17	-999	-999	-999	-999	-999	-999	-999	-999	-999	-999	3.0	30.8	35.1						48.2	38.6	0.0
2018 11/12 18:33	-999	-999	-999	-999	-999	-999	-999	-999	-999	-999	3.2	31.7	35.2						47.6	38.4	0.0
2018 11/12 18:45	-999	-999	-999	-999	-999	-999	-999	-999	-999	-999	3.0	32.6	35.8						47.1	38.1	0.0
2018 11/12 19:01	-999	-999	-999	-999	-999	-999	-999	-999	-999	-999	2.9	31.7	36.0						46.6	37.9	0.0
2018 11/12 19:17	-999	-999	-999	-999	-999	-999	-999	-999	-999	-999	3.0	32.6	36.1						46.0	37.6	0.0
2018 11/12 19:33	-999	-999	-999	-999	-999	-999	-999	-999	-999	-999	2.9	32.6	36.3						45.7	37.4	0.0
2018 11/12 19:45	-999	-999	-999	-999	-999	-999	-999	-999	-999	-999	3.0	32.6	36.8						45.2	37.2	0.0
2018 11/12 20:01	-999	-999	-999	-999	-999	-999	-999	-999	-999	-999	2.9	32.6	36.0						44.9	37.0	0.0
2018 11/12 20:17	-999	-999	-999	-999	-999	-999	-999	-999	-999	-999	2.8	33.5	36.8						44.4	36.8	0.0
2018 11/12 20:33	-999	-999	-999	-999	-999	-999	-999	-999	-999	-999	2.9	33.5	36.7						44.0	36.6	0.0
2018 11/12 20:45	-999	-999	-999	-999	-999	-999	-999	-999	-999	-999	2.8	33.5	37.3						43.8	36.5	0.0
2018 11/12 21:01	-999	-999	-999	-999	-999	-999	-999	-999	-999	-999	2.9	32.6	37.1						43.4	36.3	0.0
2018 11/12 21:17	-999	-999	-999	-999	-999	-999	-999	-999	-999	-999	2.8	32.6	36.7						43.1	36.1	0.0
2018 11/12 21:33	-999	-999	-999	-999	-999	-999	-999	-999	-999	-999	3.0	32.6	36.3						42.6	36.0	0.0
2018 11/12 21:45	-999	-999	-999	-999	-999	-999	-999	-999	-999	-999	2.9	32.6	36.4						42.5	35.8	0.0
2018 11/12 22:01	-999	-999	-999	-999	-999	-999	-999	-999	-999	-999	2.9	32.6	37.0						42.1	35.7	0.0
2018 11/12 22:17	-999	-999	-999	-999	-999	-999	-999	-999	-999	-999	3.0	32.6	36.9						41.9	35.5	0.0
2018 11/12 22:33	-999	-999	-999	-999	-999	-999	-999	-999	-999	-999	3.0	32.6	36.8						41.5	35.4	0.0
2018 11/12 22:45	-999	-999	-999	-999	-999	-999	-999	-999	-999	-999	3.0	32.6	36.9						41.4	35.3	0.0
2018 11/12 23:01	-999	-999	-999	-999	-999	-999	-999	-999	-999	-999	3.0	32.6	36.6						41.1	35.2	0.0
2018 11/12 23:17	-999	-999	-999	-999	-999	-999	-999	-999	-999	-999	3.0	31.7	36.2						41.0	35.1	0.0
2018 11/12 23:33	-999	-999	-999	-999	-999	-999	-999	-999	-999	-999	2.9	31.7	35.9						40.7	34.9	0.0
2018 11/12 23:45	-999	-999	-999	-999	-999	-999	-999	-999	-999	-999	2.8	31.7	35.5						40.4	34.9	0.0
2018 11/13 00:01	-999	-999	-999	-999	-999	-999	-999	-999	-999	-999	2.8	31.7	35.1						40.2	34.8	0.0
2018 11/13 00:17	-999	-999	-999	-999	-999	-999	-999	-999	-999	-999	3.0	30.8	35.0						39.9	34.8	0.0
2018 11/13 00:33	-999	-999	-999	-999	-999	-999	-999	-999	-999	-999	2.8	31.7	35.2						39.7	34.7	0.0
2018 11/13 00:45	-999	-999	-999	-999	-999	-999	-999	-999	-999	-999	2.8	31.7	34.8						39.6	34.7	0.0
2018 11/13 01:01	-999	-999	-999	-999	-999	-999	-999	-999	-999	-999	3.0	31.7	34.3						39.3	34.5	0.0
2018 11/13 01:17	-999	-999	-999	-999	-999	-999	-999	-999	-999	-999	3.0	32.6	34.6						39.0	34.4	0.0
2018 11/13 01:33	-999	-999	-999	-999	-999	-999	-999	-999	-999	-999	2.9	31.7	34.8						38.8	34.3	0.0
2018 11/13 01:45	-999	-999	-999	-999	-999	-999	-999	-999	-999	-999	3.0	31.7	34.4						38.6	34.2	0.0
2018 11/13 02:01	-999	-999	-999	-999	-999	-999	-999	-999	-999	-999	2.9	31.7	33.1						38.4	34.2	0.0
2018 11/13 02:17	-999	-999	-999	-999	-999	-999	-999	-999	-999	-999	2.9	32.6	32.1						38.0	34.0	0.0
2018 11/13 02:33	-999	-999	-999	-999	-999	-999	-999	-999	-999	-999	2.9	32.6	33.9						37.9	33.9	0.0
2018 11/13 02:45	-999	-999	-999	-999	-999	-999	-999	-999	-999	-999	2.8	31.7	33.0						37.7	33.9	0.0
2018 11/13 03:01	-999	-999	-999	-999	-999	-999	-999	-999	-999	-999	3.0	30.8	33.3						37.5	33.6	0.0
2018 11/13 03:17	-999	-999	-999	-999	-999	-999	-999	-999	-999	-999	2.9	30.8	33.4						37.2	33.6	0.0
2018 11/13 03:33	-999	-999	-999	-999	-999	-999	-999	-999	-999	-999	2.8	30.8	31.2						37.0	33.5	0.0
2018 11/13 03:45	-999	-999	-999	-999	-999	-999	-999	-999	-999	-999	3.0	29.9	31.7						36.9	33.4	0.0
2018 11/13 04:01	-999	-999	-999	-999	-999	-999	-999	-999	-999	-999	3.0	30.8	29.3						36.7	33.3	0.0
2018 11/13 04:17	-999	-999	-999	-999	-999	-999	-999	-999	-999	-999	2.8	31.7	28.5						36.5	33.2	0.0
2018 11/13 04:33	-999	-999	-999	-999	-999	-999	-999	-999	-999	-999	3.0	35.3	28.2						36.2	33.1	0.0
2018 11/13 04:45	-999	-999	-999	-999	-999	-999	-999	-999	-999	-999	2.8	35.3	28.8						36.0	33.1	0.0
2018 11/13 05:01	-999	-999	-999	-999	-999	-999	-999	-999	-999	-999	2.9	42.5	28.4						35.9	33.0	0.0
2018 11/13 05:17	-999	-999	-999	-999	-999	-999	-999	-999	-999	-999	2.7	46.1	27.5						35.7	32.9	0.0
2018 11/13 05:33	-999	-999	-999	-999	-999	-999	-999	-999	-999	-999	2.6	47.0	27.3						35.4	32.7	0.0
2018 11/13 05:45	-999	-999	-999	-999	-999	-999	-999	-999	-999	-999	2.4	47.0	26.9						35.3	32.6	0.0
2018 11/13 06:01	-999	-999	-999	-999	-999	-999	-999	-999	-999	-999	2.4	46.1	26.4						35.0	32.5	0.0
2018 11/13 06:18	-999	-999	-999	-999	-999	-999	-999	-999	-999	-999	2.4	44.3	26.9						34.9	32.4	0.0
2018 11/13 06:33	-999	-999	-999	-999	-999	-999	-999	-999	-999	-999	2.5	46.1	26.8						34.8	32.4	0.0
2018 11/13 06:45	-999	-999	-999	-999	-999	-999	-999	-999	-999	-999	2.8	46.1	26.7						34.7	32.3	0.0
2018 11/13 07:01	-999	-999	-999	-999	-999	-999	-999	-999	-999	-999	2.8	44.3	27.0						34.4	32.2	0.0
2018 11/13 07:17	-999	-999	-999	-999	-999	-999	-999	-999	-999	-999	2.7	45.2	27.2						34.4	32.2	0.0
2018 11/13 07:33	-999	-999	-999	-999	-999	-999	-999	-999	-999	-999	2.8	44.3	27.8						34.3	32.2	0.0
2018 11/13 07:45	-999	-999	-999	-999	-999	-999	-999	-999	-999	-999	2.7	44.3	28.4						34.3	32.1	0.0
2018 11/13 08:01	-999	-999	-999	-999	-999	-999	-999	-999	-999	-999	2.7	44.3	29.1						34.3	32.1	0.0
2018 11/13 08:17	-999	-999	-999	-999	-999	-999	-999	-999	-999	-999	3.0	44.3	29.9						34.3	32.1	0.0
2018 11/13 08:33	-999	-999	-999	-999	-999	-999	-999	-999	-999	-999	2.8	45.2	30.9						34.4	32.2	0.0
2018 11/13 08:45	-999	-999	-999	-999	-999	-999	-999	-999	-999	-999	2.6	46.1	32.4						34.7	32.2	0.0
2018 11/13 09:01	-999	-999	-999	-999	-999	-999	-999	-999	-999	-999	2.4	47.0	34.2						35.0	32.5	0.0
2018 11/13 09:17	-999	-999	-999	-999	-999	-999	-999	-999	-999	-999	2.2	47.0	36.4						35.7	33.1	0.0
2018 11/13 09:33	-999	-999	-999	-999	-999	-999	-999	-999	-999	-999	2.2	47.9	44.0						37.0	33.9	0.0
2018 11/13 09:45	-999	-999	-999	-999	-999	-999	-999	-999	-999	-999	2.4	47.9	46.6						38.4	34.9	0.0
2018 11/13 10:01	-999	-999	-999	-999	-999	-999	-999	-999	-999	-999	2.4	48.8	49.3						40.5	36.6	0.0
2018 11/13 10:17	-999	-999	-999	-999	-999	-999	-999	-999	-999	-999	2.7	49.7	49.2						42.9	37.7	0.0
2018 11/13 10:30	-999	-999	-999	-999	-999	-999	-999	-999	-999	-999	2.8	49.7	49.4						44.4	38.7	0.0
2018 11/13 10:45	-999	-999	-999	-999	-999	-999	-999	-999	-999	-999	2.7	49.7	49.8						46.4	40.2	0.0
2018 11/13 11:01	-999	-999	-999	-999	-999	-999	-999	-999	-999	-999	2.8	48.8	49.2						47.8	41.2	0.0
2018 11/13 11:17	-999	-999	-999	-999	-999	-999	-999	-999	-999	-999	2.8	50.6	51.4						48.8	41.7	0.0
2018 11/13 11:33	-999	-999	-999	-999	-999	-999	-999	-999	-999	-999	2.8	49.7	51.9						49.8	42.6	0.0
2018 11/13 11:45	-999	-999	-999	-999	-999	-999	-999	-999	-999	-999	2.6	49.7	51.6						50.4	43.1	0.0
2018 11/13 12:01	-999	-999	-999	-999	-999	-999	-999	-999	-999	-999	2.6	51.5	51.5						51.0	43.3	0.0
2018 11/13 12:17	-999	-999	-999	-999	-999	-999	-999	-999	-999	-999	2.0	52.4	53.1						51.7	43.8	0.0
2018 11/13 12:30	-999	-999	-999	-999	-999	-999	-999	-999	-999	-999	1.6	56.0	54.4						52.7	44.3	0.0
2018 11/13 12:45	-999	-999	-999	-999	-999	-999	-999	-999	-999	-999	1.6	55.1	55.3						53.8	45.2	0.0
2018 11/13 13:01	-999	-999	-999	-999	-999	-999	-999	-999	-999	-999	1.9	53.3	55.1						54.7	45.8	0.0
2018 11/13 13:17	-999	-999	-999	-999	-999	-999	-999	-999	-999	-999	2.1	51.5	54.4						55.2	46.2	0.0
2018 11/13 13:33	-999	-999	-999	-999	-999	-999	-999	-999	-999	-999	2.2	50.6	53.8						55.5	46.4	0.0
2018 11/13 13:45	-999	-999	-999	-999	-999	-999	-999	-999	-999	-999	1.9	51.5	53.9						55.6	46.2	0.0
2018 11/13 14:01	-999	-999	-999	-999	-999	-999	-999	-999	-999	-999	1.7	51.5	53.9						55.8	46.2	0.0
2018 11/13 14:17	-999	-999	-999	-999	-999	-999	-999	-999	-999	-999	1.7	48.8	52.8						55.7	46.4	0.0
2018 11/13 14:33	-999	-999	-999	-999	-999	-999	-999	-999	-999	-999	1.5	49.7	52.3						55.5	46.1	0.0
2018 11/13 14:45	-999	-999	-999	-999	-999	-999	-999	-999	-999	-999	1.9	48.8	52.2						55.2	46.0	0.0
2018 11/13 15:01	-999	-999	-999	-999	-999	-999	-999	-999	-999	-999	1.5	50.6	52.2						55.1	45.9	0.0
2018 11/13 15:17	-999	-999	-999	-999	-999	-999	-999	-999	-999	-999	1.7	49.7	51.7						55.1	45.9	0.0
2018 11/13 15:33	-999	-999	-999	-999	-999	-999	-999	-999	-999	-999	1.7	47.9	50.4						54.9	45.8	0.0
2018 11/13 15:45	-999	-999	-999	-999	-999	-999	-999	-999	-999	-999	1.7	47.9	48.3						54.5	45.6	0.0
2018 11/13 16:01	-999	-999	-999	-999	-999	-999	-999	-999	-999	-999	1.6	47.0	46.1						53.8	45.2	0.0
2018 11/13 16:17	-999	-999	-999	-999	-999	-999	-999	-999	-999	-999	1.9	45.2	47.1						53.1	44.9	0.0
2018 11/13 16:33	-999	-999	-999	-999	-999	-999	-999	-999	-999	-999	1.5	44.3	46.3						52.4	44.4	0.0
2018 11/13 16:45	-999	-999	-999	-999	-999	-999	-999	-999	-999	-999	2.0	43.4	44.4						51.9	44.1	0.0
2018 11/13 17:01	-999	-999	-999	-999	-999	-999	-999	-999	-999	-999	2.0	43.4	43.6						51.2	43.7	0.0
2018 11/13 17:17	-999	-999	-999	-999	-999	-999	-999	-999	-999	-999	1.9	43.4	42.3						50.6	43.3	0.0
2018 11/13 17:33	-999	-999	-999	-999	-999	-999	-999	-999	-999	-999	1.9	43.4	42.9						50.2	42.9	0.0
2018 11/13 17:45	-999	-999	-999	-999	-999	-999	-999	-999	-999	-999	2.2	42.5	42.4						49.8	42.6	0.0
2018 11/13 18:01	-999	-999	-999	-999	-999	-999	-999	-999	-999	-999	2.0	43.4	42.3						49.4	42.4	0.0
2018 11/13 18:17	-999	-999	-999	-999	-999	-999	-999	-999	-999	-999	1.8	43.4	42.6						49.0	42.1	0.0
2018 11/13 18:33	-999	-999	-999	-999	-999	-999	-999	-999	-999	-999	2.2	42.5	42.2						48.7	41.9	0.0
2018 11/13 18:45	-999	-999	-999	-999	-999	-999	-999	-999	-999	-999	1.7	42.5	41.4						48.4	41.6	0.0
2018 11/13 19:01	-999	-999	-999	-999	-999	-999	-999	-999	-999	-999	1.8	41.6	40.4						47.9	41.4	0.0
2018 11/13 19:18	-999	-999	-999	-999	-999	-999	-999	-999	-999	-999	2.1	41.6	40.0						47.5	41.2	0.0
2018 11/13 19:33	-999	-999	-999	-999	-999	-999	-999	-999	-999	-999	1.7	39.8	39.0						47.0	40.8	0.0
2018 11/13 19:45	-999	-999	-999	-999	-999	-999	-999	-999	-999	-999	1.9	38.9	40.8						46.7	40.7	0.0
2018 11/13 20:01	-999	-999	-999	-999	-999	-999	-999	-999	-999	-999	1.9	39.8	38.1						46.2	40.5	0.0
2018 11/13 20:17	-999	-999	-999	-999	-999	-999	-999	-999	-999	-999	2.1	39.8	40.6						45.8	40.3	0.0
2018 11/13 20:33	-999	-999	-999	-999	-999	-999	-999	-999	-999	-999	2.0	39.8	39.6						45.5	40.2	0.0
2018 11/13 20:45	-999	-999	-999	-999	-999	-999	-999	-999	-999	-999	1.9	38.9	39.7						45.2	39.9	0.0
2018 11/13 21:01	-999	-999	-999	-999	-999	-999	-999	-999	-999	-999	2.0	38.9	38.4						44.9	39.7	0.0
2018 11/13 21:17	-999	-999	-999	-999	-999	-999	-999	-999	-999	-999	1.9	38.9	38.8						44.7	39.6	0.0
2018 11/13 21:33	-999	-999	-999	-999	-999	-999	-999	-999	-999	-999	1.9	38.0	38.7						44.4	39.4	0.0
2018 11/13 21:45	-999	-999	-999	-999	-999	-999	-999	-999	-999	-999	2.0	37.1	38.9						44.2	39.3	0.0
2018 11/13 22:01	-999	-999	-999	-999	-999	-999	-999	-999	-999	-999	2.2	38.0	37.5						43.9	39.2	0.0
2018 11/13 22:18	-999	-999	-999	-999	-999	-999	-999	-999	-999	-999	1.8	38.0	39.1						43.7	38.9	0.0
2018 11/13 22:30	-999	-999	-999	-999	-999	-999	-999	-999	-999	-999	2.0	38.0	37.8						43.4	38.9	0.0
2018 11/13 22:45	-999	-999	-999	-999	-999	-999	-999	-999	-999	-999	2.0	38.0	39.8						43.2	38.8	0.0
2018 11/13 23:01	-999	-999	-999	-999	-999	-999	-999	-999	-999	-999	2.1	37.1	39.3						43.0	38.7	0.0
2018 11/13 23:17	-999	-999	-999	-999	-999	-999	-999	-999	-999	-999	2.0	37.1	38.8						42.9	38.6	0.0
2018 11/13 23:33	-999	-999	-999	-999	-999	-999	-999	-999	-999	-999	2.2	37.1	37.2						42.6	38.6	0.0
2018 11/13 23:45	-999	-999	-999	-999	-999	-999	-999	-999	-999	-999	2.1	37.1	36.8						42.5	38.5	0.0
2018 11/14 00:02	-999	-999	-999	-999	-999	-999	-999	-999	-999	-999	1.9	36.2	37.5						42.3	38.5	0.0
2018 11/14 00:17	-999	-999	-999	-999	-999	-999	-999	-999	-999	-999	1.9	36.2	37.3						42.2	38.4	0.0
2018 11/14 00:33	-999	-999	-999	-999	-999	-999	-999	-999	-999	-999	2.0	36.2	37.0						42.1	38.2	0.0
2018 11/14 00:45	-999	-999	-999	-999	-999	-999	-999	-999	-999	-999	2.3	38.0	35.4						42.0	38.2	0.0
2018 11/14 01:01	-999	-999	-999	-999	-999	-999	-999	-999	-999	-999	2.1	38.9	36.7						41.7	38.1	0.0
2018 11/14 01:17	-999	-999	-999	-999	-999	-999	-999	-999	-999	-999	2.2	38.0	37.9						41.6	38.0	0.0
2018 11/14 01:33	-999	-999	-999	-999	-999	-999	-999	-999	-999	-999	2.2	38.0	36.2						41.4	37.9	0.0
2018 11/14 01:45	-999	-999	-999	-999	-999	-999	-999	-999	-999	-999	2.1	38.0	37.0						41.4	37.9	0.0
2018 11/14 02:01	-999	-999	-999	-999	-999	-999	-999	-999	-999	-999	2.0	37.1	35.5						41.4	37.9	0.0
2018 11/14 02:17	-999	-999	-999	-999	-999	-999	-999	-999	-999	-999	2.1	38.0	35.3						41.2	37.8	0.0
2018 11/14 02:33	-999	-999	-999	-999	-999	-999	-999	-999	-999	-999	2.0	38.0	38.1						41.2	37.8	0.0
2018 11/14 02:45	-999	-999	-999	-999	-999	-999	-999	-999	-999	-999	2.0	38.0	35.2						41.1	37.8	0.0
2018 11/14 03:01	-999	-999	-999	-999	-999	-999	-999	-999	-999	-999	2.0	38.0	37.9						40.8	37.8	0.0
2018 11/14 03:17	-999	-999	-999	-999	-999	-999	-999	-999	-999	-999	2.1	38.0	38.4						40.7	37.7	0.0
2018 11/14 03:33	-999	-999	-999	-999	-999	-999	-999	-999	-999	-999	1.9	38.0	37.2						40.6	37.6	0.0
2018 11/14 03:45	-999	-999	-999	-999	-999	-999	-999	-999	-999	-999	1.9	38.0	38.1						40.6	37.6	0.0
2018 11/14 04:01	-999	-999	-999	-999	-999	-999	-999	-999	-999	-999	2.0	37.1	37.9						40.5	37.6	0.0
2018 11/14 04:17	-999	-999	-999	-999	-999	-999	-999	-999	-999	-999	1.9	36.2	37.6						40.4	37.5	0.0
2018 11/14 04:33	-999	-999	-999	-999	-999	-999	-999	-999	-999	-999	1.8	36.2	36.6						40.2	37.4	0.0
2018 11/14 04:45	-999	-999	-999	-999	-999	-999	-999	-999	-999	-999	1.9	37.1	37.9						40.2	37.4	0.0
2018 11/14 05:01	-999	-999	-999	-999	-999	-999	-999	-999	-999	-999	1.9	38.0	39.6						40.0	37.2	0.0
2018 11/14 05:17	-999	-999	-999	-999	-999	-999	-999	-999	-999	-999	2.0	37.1	38.2						39.9	37.2	0.0
2018 11/14 05:30	-999	-999	-999	-999	-999	-999	-999	-999	-999	-999	2.1	37.1	38.0						39.9	37.2	0.0
2018 11/14 05:45	-999	-999	-999	-999	-999	-999	-999	-999	-999	-999	1.9	38.9	39.6						39.9	37.2	0.0
2018 11/14 06:01	-999	-999	-999	-999	-999	-999	-999	-999	-999	-999	2.0	38.9	40.8						39.8	37.2	0.0
2018 11/14 06:17	-999	-999	-999	-999	-999	-999	-999	-999	-999	-999	1.8	38.9	42.4						39.9	37.2	0.0
2018 11/14 06:33	-999	-999	-999	-999	-999	-999	-999	-999	-999	-999	1.7	38.0	41.1						39.9	37.2	0.0
2018 11/14 06:45	-999	-999	-999	-999	-999	-999	-999	-999	-999	-999	2.0	37.1	41.8						39.9	37.2	0.0
2018 11/14 07:01	-999	-999	-999	-999	-999	-999	-999	-999	-999	-999	1.9	38.0	39.5						40.0	37.2	0.0
2018 11/14 07:17	-999	-999	-999	-999	-999	-999	-999	-999	-999	-999	2.0	38.0	39.8						39.9	37.2	0.0
2018 11/14 07:33	-999	-999	-999	-999	-999	-999	-999	-999	-999	-999	1.9	38.9	43.4						40.0	37.2	0.0
2018 11/14 07:45	-999	-999	-999	-999	-999	-999	-999	-999	-999	-999	1.9	39.8	43.5						40.2	37.2	0.0
2018 11/14 08:01	-999	-999	-999	-999	-999	-999	-999	-999	-999	-999	1.9	39.8	44.4						40.4	37.5	0.0
2018 11/14 08:17	-999	-999	-999	-999	-999	-999	-999	-999	-999	-999	2.0	39.8	44.4						40.6	37.6	0.0
2018 11/14 08:33	-999	-999	-999	-999	-999	-999	-999	-999	-999	-999	1.9	40.7	44.8						41.0	37.8	0.0
2018 11/14 08:45	-999	-999	-999	-999	-999	-999	-999	-999	-999	-999	1.9	40.7	45.1						41.3	37.9	0.0
2018 11/14 09:01	-999	-999	-999	-999	-999	-999	-999	-999	-999	-999	1.7	40.7	44.8						41.7	38.1	0.0
2018 11/14 09:18	-999	-999	-999	-999	-999	-999	-999	-999	-999	-999	1.9	39.8	44.7						42.2	38.4	0.0
2018 11/14 09:30	-999	-999	-999	-999	-999	-999	-999	-999	-999	-999	1.9	39.8	44.7						42.4	38.5	0.0
2018 11/14 09:45	-999	-999	-999	-999	-999	-999	-999	-999	-999	-999	1.8	40.7	44.8						42.6	38.7	0.0
2018 11/14 10:01	-999	-999	-999	-999	-999	-999	-999	-999	-999	-999	1.9	39.8	44.4						43.0	38.8	0.0
2018 11/14 10:17	-999	-999	-999	-999	-999	-999	-999	-999	-999	-999	1.8	40.7	44.5						43.2	38.9	0.0
2018 11/14 10:33	-999	-999	-999	-999	-999	-999	-999	-999	-999	-999	1.9	40.7	45.1						43.5	39.2	0.0
2018 11/14 10:45	-999	-999	-999	-999	-999	-999	-999	-999	-999	-999	1.8	40.7	45.0						43.8	39.3	0.0
2018 11/14 11:01	-999	-999	-999	-999	-999	-999	-999	-999	-999	-999	1.9	40.7	45.1						44.1	39.5	0.0
2018 11/14 11:17	-999	-999	-999	-999	-999	-999	-999	-999	-999	-999	1.9	40.7	45.6						44.3	39.7	0.0
2018 11/14 11:33	-999	-999	-999	-999	-999	-999	-999	-999	-999	-999	1.8	40.7	45.4						44.7	39.8	0.0
2018 11/14 11:45	-999	-999	-999	-999	-999	-999	-999	-999	-999	-999	1.8	40.7	45.0						44.9	39.9	0.0
2018 11/14 12:01	-999	-999	-999	-999	-999	-999	-999	-999	-999	-999	1.9	39.8	44.9						45.1	40.2	0.0
2018 11/14 12:17	-999	-999	-999	-999	-999	-999	-999	-999	-999	-999	1.9	39.8	44.9						45.2	40.3	0.0
2018 11/14 12:33	-999	-999	-999	-999	-999	-999	-999	-999	-999	-999	1.9	39.8	44.7						45.5	40.5	0.0
2018 11/14 12:45	-999	-999	-999	-999	-999	-999	-999	-999	-999	-999	1.9	39.8	44.5						45.6	40.5	0.0
2018 11/14 13:02	-999	-999	-999	-999	-999	-999	-999	-999	-999	-999	1.8	39.8	44.7						45.7	40.6	0.0
2018 11/14 13:17	-999	-999	-999	-999	-999	-999	-999	-999	-999	-999	1.9	38.9	44.8						45.9	40.8	0.0
2018 11/14 13:33	-999	-999	-999	-999	-999	-999	-999	-999	-999	-999	1.9	38.9	44.4						46.0	40.8	0.0
2018 11/14 13:45	-999	-999	-999	-999	-999	-999	-999	-999	-999	-999	1.9	38.9	44.3						46.0	41.0	0.0
2018 11/14 14:01	-999	-999	-999	-999	-999	-999	-999	-999	-999	-999	1.8	38.9	43.9						46.1	41.1	0.0
2018 11/14 14:17	-999	-999	-999	-999	-999	-999	-999	-999	-999	-999	1.8	38.0	43.9						46.1	41.2	0.0
2018 11/14 14:33	-999	-999	-999	-999	-999	-999	-999	-999	-999	-999	1.6	38.9	43.8						46.1	41.2	0.0
2018 11/14 14:45	-999	-999	-999	-999	-999	-999	-999	-999	-999	-999	1.6	38.9	43.9						46.1	41.3	0.0
2018 11/14 15:01	-999	-999	-999	-999	-999	-999	-999	-999	-999	-999	1.5	38.9	43.6						46.0	41.4	0.0
2018 11/14 15:17	-999	-999	-999	-999	-999	-999	-999	-999	-999	-999	1.5	38.9	43.5						46.0	41.4	0.0
2018 11/14 15:33	-999	-999	-999	-999	-999	-999	-999	-999	-999	-999	1.7	38.0	43.6						46.0	41.4	0.0
2018 11/14 15:45	-999	-999	-999	-999	-999	-999	-999	-999	-999	-999	1.7	38.0	43.5						46.0	41.5	0.0
2018 11/14 16:01	-999	-999	-999	-999	-999	-999	-999	-999	-999	-999	1.7	38.0	43.4						45.9	41.5	0.0
2018 11/14 16:17	-999	-999	-999	-999	-999	-999	-999	-999	-999	-999	1.6	38.0	43.2						45.8	41.5	0.0
2018 11/14 16:33	-999	-999	-999	-999	-999	-999	-999	-999	-999	-999	1.5	37.1	42.6						45.6	41.5	0.0
2018 11/14 16:45	-999	-999	-999	-999	-999	-999	-999	-999	-999	-999	1.5	37.1	42.3						45.5	41.5	0.0
2018 11/14 17:01	-999	-999	-999	-999	-999	-999	-999	-999	-999	-999	1.3	38.0	42.6						45.2	41.4	0.0
2018 11/14 17:17	-999	-999	-999	-999	-999	-999	-999	-999	-999	-999	1.6	37.1	42.7						45.1	41.3	0.0
2018 11/14 17:33	-999	-999	-999	-999	-999	-999	-999	-999	-999	-999	1.7	37.1	42.6						44.9	41.4	0.0
2018 11/14 17:45	-999	-999	-999	-999	-999	-999	-999	-999	-999	-999	1.7	37.1	42.6						44.8	41.3	0.0
2018 11/14 18:01	-999	-999	-999	-999	-999	-999	-999	-999	-999	-999	1.3	37.1	42.3						44.7	41.3	0.0
2018 11/14 18:17	-999	-999	-999	-999	-999	-999	-999	-999	-999	-999	1.7	37.1	42.3						44.4	41.2	0.0
2018 11/14 18:33	-999	-999	-999	-999	-999	-999	-999	-999	-999	-999	1.5	37.1	42.3						44.2	41.2	0.0
2018 11/14 18:45	-999	-999	-999	-999	-999	-999	-999	-999	-999	-999	1.4	38.0	42.2						44.1	41.2	0.0
2018 11/14 19:01	-999	-999	-999	-999	-999	-999	-999	-999	-999	-999	1.3	38.0	41.7						44.1	41.1	0.0
2018 11/14 19:17	-999	-999	-999	-999	-999	-999	-999	-999	-999	-999	1.5	37.1	42.4						44.0	41.1	0.0
2018 11/14 19:30	-999	-999	-999	-999	-999	-999	-999	-999	-999	-999	1.3	38.0	42.1						44.0	41.1	0.0
2018 11/14 19:45	-999	-999	-999	-999	-999	-999	-999	-999	-999	-999	1.4	38.0	41.8						43.9	41.1	0.0
2018 11/14 20:01	-999	-999	-999	-999	-999	-999	-999	-999	-999	-999	1.5	37.1	42.4						43.9	41.1	0.0
2018 11/14 20:17	-999	-999	-999	-999	-999	-999	-999	-999	-999	-999	1.3	37.1	42.6						43.8	41.1	0.0
2018 11/14 20:33	-999	-999	-999	-999	-999	-999	-999	-999	-999	-999	1.3	37.1	42.0						43.8	41.1	0.0
2018 11/14 20:45	-999	-999	-999	-999	-999	-999	-999	-999	-999	-999	1.2	37.1	42.0						43.7	41.1	0.0
2018 11/14 21:01	-999	-999	-999	-999	-999	-999	-999	-999	-999	-999	1.4	36.2	42.0						43.5	41.1	0.0
2018 11/14 21:17	-999	-999	-999	-999	-999	-999	-999	-999	-999	-999	1.1	37.1	42.2						43.5	41.1	0.0
2018 11/14 21:33	-999	-999	-999	-999	-999	-999	-999	-999	-999	-999	1.2	37.1	40.9						43.5	41.1	0.0
2018 11/14 21:45	-999	-999	-999	-999	-999	-999	-999	-999	-999	-999	1.0	37.1	40.5						43.4	41.0	0.0
2018 11/14 22:01	-999	-999	-999	-999	-999	-999	-999	-999	-999	-999	1.3	36.2	41.1						43.4	41.0	0.0
2018 11/14 22:18	-999	-999	-999	-999	-999	-999	-999	-999	-999	-999	0.9	37.1	41.1						43.3	41.0	0.0
2018 11/14 22:33	-999	-999	-999	-999	-999	-999	-999	-999	-999	-999	1.0	37.1	40.4						43.2	40.8	0.0
2018 11/14 22:45	-999	-999	-999	-999	-999	-999	-999	-999	-999	-999	1.1	36.2	40.4						43.2	40.8	0.0
2018 11/14 23:01	-999	-999	-999	-999	-999	-999	-999	-999	-999	-999	0.6	36.2	38.2						43.1	40.7	0.0
2018 11/14 23:17	-999	-999	-999	-999	-999	-999	-999	-999	-999	-999	0.9	35.3	36.8						43.1	40.6	0.0
2018 11/14 23:33	-999	-999	-999	-999	-999	-999	-999	-999	-999	-999	1.1	35.3	35.8						42.7	40.5	0.0
2018 11/14 23:45	-999	-999	-999	-999	-999	-999	-999	-999	-999	-999	1.1	35.3	36.0						42.5	40.5	0.0
2018 11/15 00:02	-999	-999	-999	-999	-999	-999	-999	-999	-999	-999	1.0	35.3	35.1						42.5	40.4	0.0
2018 11/15 00:17	-999	-999	-999	-999	-999	-999	-999	-999	-999	-999	0.8	35.3	37.6						42.2	40.2	0.0
2018 11/15 00:33	-999	-999	-999	-999	-999	-999	-999	-999	-999	-999	1.1	34.4	35.4						42.0	39.9	0.0
2018 11/15 00:45	-999	-999	-999	-999	-999	-999	-999	-999	-999	-999	1.3	33.5	33.9						41.6	39.9	0.0
2018 11/15 01:01	-999	-999	-999	-999	-999	-999	-999	-999	-999	-999	0.8	35.3	33.0						41.4	39.7	0.0
2018 11/15 01:17	-999	-999	-999	-999	-999	-999	-999	-999	-999	-999	1.1	35.3	32.3						41.2	39.5	0.0
2018 11/15 01:33	-999	-999	-999	-999	-999	-999	-999	-999	-999	-999	0.8	34.4	32.5						41.0	39.4	0.0
2018 11/15 01:45	-999	-999	-999	-999	-999	-999	-999	-999	-999	-999	1.2	34.4	31.7						40.7	39.3	0.0
2018 11/15 02:01	-999	-999	-999	-999	-999	-999	-999	-999	-999	-999	1.0	34.4	31.1						40.6	39.2	0.0
2018 11/15 02:17	-999	-999	-999	-999	-999	-999	-999	-999	-999	-999	1.0	33.5	29.7						40.3	38.9	0.0
2018 11/15 02:33	-999	-999	-999	-999	-999	-999	-999	-999	-999	-999	0.8	33.5	30.0						40.0	38.8	0.0
2018 11/15 02:45	-999	-999	-999	-999	-999	-999	-999	-999	-999	-999	1.1	33.5	29.5						39.9	38.7	0.0
2018 11/15 03:01	-999	-999	-999	-999	-999	-999	-999	-999	-999	-999	0.8	33.5	29.5						39.7	38.6	0.0
2018 11/15 03:17	-999	-999	-999	-999	-999	-999	-999	-999	-999	-999	1.1	33.5	29.0						39.5	38.5	0.0
2018 11/15 03:33	-999	-999	-999	-999	-999	-999	-999	-999	-999	-999	1.3	33.5	28.9						39.3	38.4	0.0
2018 11/15 03:45	-999	-999	-999	-999	-999	-999	-999	-999	-999	-999	1.2	33.5	28.4						39.2	38.2	0.0
2018 11/15 04:01	-999	-999	-999	-999	-999	-999	-999	-999	-999	-999	0.8	33.5	28.6						38.9	38.0	0.0
2018 11/15 04:17	-999	-999	-999	-999	-999	-999	-999	-999	-999	-999	1.1	33.5	28.0						38.8	38.0	0.0
2018 11/15 04:33	-999	-999	-999	-999	-999	-999	-999	-999	-999	-999	1.2	33.5	28.2						38.6	37.9	0.0
2018 11/15 04:45	-999	-999	-999	-999	-999	-999	-999	-999	-999	-999	1.1	32.6	28.1						38.4	37.8	0.0
2018 11/15 05:01	-999	-999	-999	-999	-999	-999	-999	-999	-999	-999	0.7	33.5	27.6						38.2	37.7	0.0
2018 11/15 05:17	-999	-999	-999	-999	-999	-999	-999	-999	-999	-999	1.0	33.5	27.5						38.0	37.6	0.0
2018 11/15 05:33	-999	-999	-999	-999	-999	-999	-999	-999	-999	-999	1.1	33.5	27.1						37.8	37.5	0.0
2018 11/15 05:45	-999	-999	-999	-999	-999	-999	-999	-999	-999	-999	1.0	33.5	26.2						37.7	37.4	0.0
2018 11/15 06:01	-999	-999	-999	-999	-999	-999	-999	-999	-999	-999	0.9	32.6	26.6						37.6	37.2	0.0
2018 11/15 06:17	-999	-999	-999	-999	-999	-999	-999	-999	-999	-999	1.1	32.6	27.0						37.4	37.1	0.0
2018 11/15 06:33	-999	-999	-999	-999	-999	-999	-999	-999	-999	-999	1.1	32.6	26.6						37.2	37.0	0.0
2018 11/15 06:45	-999	-999	-999	-999	-999	-999	-999	-999	-999	-999	0.9	32.6	26.6						37.0	36.9	0.0
2018 11/15 07:01	-999	-999	-999	-999	-999	-999	-999	-999	-999	-999	0.6	33.5	26.8						37.0	36.9	0.0
2018 11/15 07:17	-999	-999	-999	-999	-999	-999	-999	-999	-999	-999	0.8	33.5	26.7						36.8	36.8	0.0
2018 11/15 07:33	-999	-999	-999	-999	-999	-999	-999	-999	-999	-999	0.5	33.5	26.6						36.7	36.7	0.0
2018 11/15 07:45	-999	-999	-999	-999	-999	-999	-999	-999	-999	-999	0.2	34.4	26.7						36.6	36.6	0.0
2018 11/15 08:01	-999	-999	-999	-999	-999	-999	-999	-999	-999	-999	1.1	34.4	27.7						36.5	36.6	0.0
2018 11/15 08:17	-999	-999	-999	-999	-999	-999	-999	-999	-999	-999	0.6	35.3	28.8						36.3	36.5	0.0
2018 11/15 08:30	-999	-999	-999	-999	-999	-999	-999	-999	-999	-999	0.8	36.2	29.9						36.3	36.5	0.0
2018 11/15 08:45	-999	-999	-999	-999	-999	-999	-999	-999	-999	-999	0.5	39.8	32.1						36.2	36.5	0.0
2018 11/15 09:01	-999	-999	-999	-999	-999	-999	-999	-999	-999	-999	-0.5	44.3	33.4						36.7	36.5	0.0
2018 11/15 09:18	-999	-999	-999	-999	-999	-999	-999	-999	-999	-999	0.0	44.3	35.0						37.8	37.2	0.0
2018 11/15 09:30	-999	-999	-999	-999	-999	-999	-999	-999	-999	-999	1.0	42.5	36.8						39.0	38.1	0.0
2018 11/15 09:45	-999	-999	-999	-999	-999	-999	-999	-999	-999	-999	1.5	41.6	39.5						41.0	39.5	0.0
2018 11/15 10:01	-999	-999	-999	-999	-999	-999	-999	-999	-999	-999	1.4	43.4	39.7						43.0	41.3	0.0
2018 11/15 10:17	-999	-999	-999	-999	-999	-999	-999	-999	-999	-999	1.3	44.3	41.1						45.2	43.2	0.0
2018 11/15 10:33	-999	-999	-999	-999	-999	-999	-999	-999	-999	-999	1.2	45.2	42.0						47.2	45.1	0.0
2018 11/15 10:45	-999	-999	-999	-999	-999	-999	-999	-999	-999	-999	1.3	46.1	43.1						48.6	46.4	0.0
2018 11/15 11:01	-999	-999	-999	-999	-999	-999	-999	-999	-999	-999	1.3	46.1	43.6						50.4	47.4	0.0
2018 11/15 11:17	-999	-999	-999	-999	-999	-999	-999	-999	-999	-999	1.4	46.1	44.2						52.0	48.6	0.0
2018 11/15 11:33	-999	-999	-999	-999	-999	-999	-999	-999	-999	-999	1.3	46.1	48.7						53.4	49.5	0.0
2018 11/15 11:45	-999	-999	-999	-999	-999	-999	-999	-999	-999	-999	1.2	47.0	49.2						54.3	50.2	0.0
2018 11/15 12:01	-999	-999	-999	-999	-999	-999	-999	-999	-999	-999	0.1	51.5	50.2						55.5	51.0	0.0
2018 11/15 12:17	-999	-999	-999	-999	-999	-999	-999	-999	-999	-999	-0.2	53.3	50.1						56.2	51.6	0.0
2018 11/15 12:33	-999	-999	-999	-999	-999	-999	-999	-999	-999	-999	-0.5	55.1	50.5						56.9	52.1	0.0
2018 11/15 12:45	-999	-999	-999	-999	-999	-999	-999	-999	-999	-999	-0.1	54.2	51.2						57.4	52.3	0.0
2018 11/15 13:01	-999	-999	-999	-999	-999	-999	-999	-999	-999	-999	-0.3	53.3	51.3						57.9	52.3	0.0
2018 11/15 13:17	-999	-999	-999	-999	-999	-999	-999	-999	-999	-999	0.5	52.4	51.5						58.4	52.5	0.0
2018 11/15 13:33	-999	-999	-999	-999	-999	-999	-999	-999	-999	-999	0.7	50.6	51.7						58.6	52.9	0.0
2018 11/15 13:45	-999	-999	-999	-999	-999	-999	-999	-999	-999	-999	-0.2	54.2	51.9						58.8	53.1	0.0
2018 11/15 14:01	-999	-999	-999	-999	-999	-999	-999	-999	-999	-999	-0.2	53.3	51.5						59.0	53.2	0.0
2018 11/15 14:17	-999	-999	-999	-999	-999	-999	-999	-999	-999	-999	-0.2	53.3	51.4						59.2	53.3	0.0
2018 11/15 14:33	-999	-999	-999	-999	-999	-999	-999	-999	-999	-999	-0.2	52.4	50.4						59.3	53.3	0.0
2018 11/15 14:45	-999	-999	-999	-999	-999	-999	-999	-999	-999	-999	0.4	50.6	49.4						59.3	53.1	0.0
2018 11/15 15:01	-999	-999	-999	-999	-999	-999	-999	-999	-999	-999	0.2	50.6	48.7						59.2	52.9	0.0
2018 11/15 15:17	-999	-999	-999	-999	-999	-999	-999	-999	-999	-999	0.2	50.6	48.1						59.1	52.4	0.0
2018 11/15 15:33	-999	-999	-999	-999	-999	-999	-999	-999	-999	-999	0.5	47.9	47.5						58.5	52.0	0.0
2018 11/15 15:45	-999	-999	-999	-999	-999	-999	-999	-999	-999	-999	0.9	45.2	47.1						58.0	51.6	0.0
2018 11/15 16:01	-999	-999	-999	-999	-999	-999	-999	-999	-999	-999	1.3	43.4	46.3						57.3	50.9	0.0
2018 11/15 16:15	30.9	-3.8	1.6	0.0	30.12	41.3	620.1	13.00	-39.9	0	1.0	42.5	46.1	0	0	0	0	0	56.5	50.3	0.0
2018 11/15 16:30	-58.9	-33.3	1.6	0.0	30.13	42.0	520.6	12.99	-39.9	0	0.9	42.5	45.9	0	0	0	0	0	55.8	49.7	0.0
2018 11/15 16:45	-99.5	-46.5	1.7	0.0	30.14	42.5	305.4	13.00	-39.9	0	0.9	41.6	41.8	0	0	0	0	0	55.1	49.2	0.0
2018 11/15 17:00	-117.8	-52.3	1.7	0.0	30.14	43.0	76.7	13.00	-39.6	0	0.9	41.6	40.3	0	0	0	0	0	54.3	48.5	0.0
2018 11/15 17:15	-126.3	-55.0	1.7	0.0	30.14	43.4	7.1	13.00	-39.6	0	1.1	41.6	38.8	0	0	0	0	0	53.7	47.9	0.0
2018 11/15 17:30	-130.2	-56.3	1.8	0.0	30.14	43.7	0.3	13.00	-39.8	0	0.9	41.6	37.5	0	0	0	0	0	53.1	47.5	0.0
2018 11/15 17:45	-132.0	-57.0	1.5	0.0	30.14	43.8	0.0	13.00	-39.9	0	0.9	41.6	36.1	0	0	0	0	0	52.3	47.0	0.0
2018 11/15 18:00	-133.0	-57.4	1.6	0.0	30.15	44.0	0.0	13.00	-40.1	0	0.9	41.6	35.9	0	0	0	0	0	51.6	46.6	0.0
2018 11/15 18:15	-133.7	-57.4	1.8	0.0	30.15	44.1	0.0	12.99	-39.8	0	0.8	41.6	35.5	0	0	0	0	0	51.0	46.1	0.0
2018 11/15 18:30	-133.7	-57.6	1.7	0.0	30.15	44.1	0.0	13.00	-40.0	0	0.9	41.6	34.9	0	0	0	0	0	50.5	45.9	0.0
2018 11/15 18:45	-134.0	-57.6	1.7	0.0	30.15	44.1	-0.3	13.00	-39.8	0	0.9	41.6	34.3	0	0	0	0	0	50.0	45.5	0.0
2018 11/15 19:00	-134.3	-57.7	1.7	0.0	30.15	44.0	0.0	12.99	-39.8	0	1.1	41.6	34.1	0	0	0	0	0	49.4	45.1	0.0
2018 11/15 19:15	-134.2	-57.8	1.6	0.0	30.15	43.9	0.0	13.00	-40.1	0	1.0	41.6	33.2	0	0	0	0	0	49.0	44.8	0.0
2018 11/15 19:30	-134.2	-57.8	1.7	0.0	30.15	43.9	0.0	13.00	-40.0	0	0.7	41.6	32.8	0	0	0	0	0	48.6	44.5	0.0
2018 11/15 19:45	-134.4	-57.8	1.7	0.0	30.15	43.8	0.0	13.00	-39.6	0	0.7	44.3	32.2	0	0	0	0	0	48.2	44.2	0.0
2018 11/15 20:00	-134.3	-57.8	1.8	0.0	30.14	43.7	-0.3	13.00	-39.9	0	0.7	44.3	32.5	0	0	0	0	0	47.6	43.9	0.0
2018 11/15 20:15	-134.6	-57.8	1.6	0.0	30.14	43.6	-0.3	13.00	-39.6	0	0.9	41.6	32.0	0	0	0	0	0	47.0	43.7	0.0
2018 11/15 20:30	-134.7	-58.0	1.7	0.0	30.14	43.5	0.0	13.01	-39.9	0	1.3	41.6	31.4	0	0	0	0	0	46.8	43.4	0.0
2018 11/15 20:45	-134.7	-58.0	1.6	0.0	30.13	43.4	0.0	13.00	-39.9	0	0.9	42.5	31.7	0	0	0	0	0	46.4	43.1	0.0
2018 11/15 21:00	-134.7	-58.0	1.7	0.0	30.13	43.2	-0.3	13.00	-39.6	0	1.3	40.7	43.0	0	0	0	0	0	46.1	42.9	0.0
2018 11/15 21:15	-134.6	-58.0	1.7	0.0	30.12	43.1	0.0	13.00	-40.0	0	1.1	41.6	46.3	0	0	0	0	0	45.8	42.6	0.0
2018 11/15 21:30	-134.8	-58.0	1.7	0.0	30.12	43.0	0.0	13.00	-39.8	0	1.3	40.7	44.7	0	0	0	0	0	45.7	42.5	0.0
2018 11/15 21:45	-134.8	-58.0	1.5	0.0	30.13	42.8	0.0	13.00	-39.9	0	1.0	40.7	40.3	0	0	0	0	0	45.5	42.4	0.0
2018 11/15 22:00	-134.7	-58.0	1.7	0.0	30.12	42.6	-0.3	13.00	-39.6	0	0.8	40.7	38.1	0	0	0	0	0	45.2	42.2	0.0
2018 11/15 22:15	-134.8	-58.0	1.6	0.0	30.12	42.5	0.0	13.00	-39.6	0	0.9	39.8	36.4	0	0	0	0	0	45.0	42.1	0.0
2018 11/15 22:30	-134.9	-58.1	1.7	0.0	30.12	42.3	0.0	13.00	-39.9	0	0.9	39.8	35.3	0	0	0	0	0	44.9	42.0	0.0
2018 11/15 22:45	-135.1	-58.1	1.6	0.0	30.12	42.2	0.0	13.00	-39.8	0	1.0	39.8	34.3	0	0	0	0	0	44.7	41.9	0.0
2018 11/15 23:00	-134.9	-58.2	1.6	0.0	30.12	42.0	0.0	12.99	-39.9	0	0.8	39.8	33.6	0	0	0	0	0	44.3	41.6	0.0
2018 11/15 23:15	-135.1	-58.1	1.7	0.0	30.11	41.9	0.0	13.00	-39.8	0	0.9	39.8	32.6	0	0	0	0	0	44.0	41.5	0.0
2018 11/15 23:30	-135.1	-58.2	1.6	0.0	30.11	41.7	0.0	13.00	-39.8	0	0.9	38.9	32.2	0	0	0	0	0	43.9	41.4	0.0
2018 11/15 23:45	-135.1	-58.1	1.7	0.0	30.11	41.6	-0.3	13.00	-39.6	0	1.0	39.8	32.1	0	0	0	0	0	43.5	41.3	0.0
2018 11/16 00:00	-135.2	-58.2	1.6	0.0	30.10	41.5	0.0	12.99	-39.6	0	0.7	40.7	31.1	0	0	0	0	0	43.2	41.1	0.0
2018 11/16 00:15	-135.2	-58.2	1.6	0.0	30.10	41.4	0.0	13.00	-39.8	0	0.8	41.6	31.3	0	0	0	0	0	42.9	41.0	0.0
2018 11/16 00:30	-134.9	-58.2	1.6	0.0	30.10	41.3	0.0	13.00	-39.9	0	1.1	40.7	30.8	0	0	0	0	0	42.7	40.8	0.0
2018 11/16 00:45	-134.9	-58.3	1.7	0.0	30.10	41.3	0.0	13.00	-40.0	0	0.9	40.7	30.7	0	0	0	0	0	42.5	40.7	0.0
2018 11/16 01:00	-134.9	-58.2	1.7	0.0	30.09	41.1	0.0	13.00	-39.9	0	0.8	41.6	31.3	0	0	0	0	0	42.3	40.6	0.0
2018 11/16 01:15	-135.2	-58.3	1.6	0.0	30.09	41.0	-0.3	13.00	-40.0	0	1.1	41.6	30.7	0	0	0	0	0	42.1	40.4	0.0
2018 11/16 01:30	-135.3	-58.2	1.6	0.0	30.09	40.9	0.0	12.98	-39.9	0	0.9	40.7	30.6	0	0	0	0	0	42.0	40.3	0.0
2018 11/16 01:45	-135.3	-58.2	1.7	0.0	30.09	40.9	0.0	13.00	-39.8	0	0.8	40.7	30.3	0	0	0	0	0	41.6	40.2	0.0
2018 11/16 02:00	-135.2	-58.3	1.7	0.0	30.09	40.8	-0.3	13.00	-39.9	0	0.8	41.6	30.0	0	0	0	0	0	41.5	40.0	0.0
2018 11/16 02:15	-135.1	-58.3	1.7	0.0	30.09	40.7	-0.3	13.00	-40.0	0	1.1	40.7	29.6	0	0	0	0	0	41.3	39.9	0.0
2018 11/16 02:30	-135.3	-58.2	1.6	0.0	30.09	40.7	0.0	13.00	-39.6	0	0.9	40.7	29.1	0	0	0	0	0	41.1	39.8	0.0
2018 11/16 02:45	-135.2	-58.3	1.6	0.0	30.08	40.6	0.0	13.00	-40.0	0	0.6	41.6	29.6	0	0	0	0	0	41.0	39.7	0.0
2018 11/16 03:00	-135.2	-58.2	1.6	0.0	30.08	40.5	0.0	12.99	-39.6	0	0.9	40.7	29.5	0	0	0	0	0	40.6	39.6	0.0
2018 11/16 03:15	-135.2	-58.2	1.7	0.0	30.08	40.5	-0.3	13.00	-39.8	0	1.0	41.6	28.8	0	0	0	0	0	40.5	39.4	0.0
2018 11/16 03:30	-135.4	-58.3	1.7	0.0	30.07	40.4	0.0	13.00	-39.8	0	0.9	43.4	29.3	0	0	0	0	0	40.4	39.3	0.0
2018 11/16 03:45	-135.3	-58.3	1.7	0.0	30.07	40.3	-0.3	12.99	-39.6	0	1.1	41.6	29.0	0	0	0	0	0	40.2	39.2	0.0
2018 11/16 04:00	-135.4	-58.3	1.7	0.0	30.07	40.3	0.0	12.99	-39.8	0	0.9	41.6	29.1	0	0	0	0	0	39.9	39.0	0.0
2018 11/16 04:15	-135.3	-58.3	1.6	0.0	30.06	40.2	0.0	13.00	-39.6	0	0.8	43.4	28.4	0	0	0	0	0	39.8	39.0	0.0
2018 11/16 04:30	-135.4	-58.3	1.7	0.0	30.05	40.1	0.0	13.00	-39.8	0	0.9	44.3	32.1	0	0	0	0	0	39.7	38.8	0.0
2018 11/16 04:45	-135.4	-58.3	1.6	0.0	30.05	40.1	0.0	12.99	-39.8	0	0.8	43.4	45.6	0	0	0	0	0	39.5	38.7	0.0
2018 11/16 05:00	-135.4	-58.3	1.7	0.0	30.05	40.1	0.0	13.00	-39.8	0	1.1	43.4	39.4	0	0	0	0	0	39.4	38.6	0.0
2018 11/16 05:15	-135.4	-58.4	1.5	0.0	30.05	40.0	0.0	13.00	-39.8	0	1.3	42.5	37.9	0	0	0	0	0	39.3	38.6	0.0
2018 11/16 05:30	-135.5	-58.4	1.6	0.0	30.05	40.0	0.0	12.99	-39.8	0	1.2	42.5	40.6	0	0	0	0	0	39.3	38.5	0.0
2018 11/16 05:45	-135.4	-58.3	1.6	0.0	30.04	39.9	0.0	13.01	-39.8	0	1.3	43.4	44.1	0	0	0	0	0	39.2	38.5	0.0
2018 11/16 06:00	-135.3	-58.3	1.7	0.0	30.05	39.9	0.0	13.00	-39.6	0	1.1	42.5	42.6	0	0	0	0	0	38.9	38.4	0.0
2018 11/16 06:15	-135.4	-58.3	1.7	0.0	30.04	39.8	0.0	12.99	-39.8	0	1.1	43.4	45.7	0	0	0	0	0	38.9	38.2	0.0
2018 11/16 06:30	-135.3	-58.4	1.6	0.0	30.04	39.8	1.4	13.00	-40.0	0	0.9	42.5	47.1	0	0	0	0	0	38.9	38.2	0.0
2018 11/16 06:45	-135.3	-58.3	1.6	0.0	30.04	39.7	25.8	13.00	-39.6	0	0.9	42.5	46.8	0	0	0	0	0	38.7	38.2	0.0
2018 11/16 07:00	-135.3	-58.3	1.8	0.0	30.04	39.6	220.9	13.00	-39.9	0	1.3	42.5	45.7	0	0	0	0	0	38.7	38.1	0.0
2018 11/16 07:15	-135.4	-58.4	1.7	0.0	30.04	39.6	517.9	13.00	-39.9	0	1.0	42.5	44.7	0	0	0	0	0	38.7	38.2	0.0
2018 11/16 07:30	-135.4	-58.3	1.7	0.0	30.04	39.6	658.4	13.00	-39.6	0	0.9	42.5	45.8	0	0	0	0	0	38.8	38.2	0.0
2018 11/16 07:45	-135.3	-58.4	1.6	0.0	30.04	39.6	721.0	13.01	-40.0	0	1.1	42.5	46.7	0	0	0	0	0	38.7	38.2	0.0
2018 11/16 08:00	-135.4	-58.3	1.8	0.0	30.04	39.6	751.0	12.99	-39.8	0	1.0	43.4	47.5	0	0	0	0	0	38.8	38.4	0.0
2018 11/16 08:15	-135.2	-58.4	1.7	0.0	30.04	39.6	768.0	12.99	-40.0	0	1.3	42.5	48.0	0	0	0	0	0	39.0	38.4	0.0
2018 11/16 08:30	-135.3	-58.4	1.6	0.0	30.04	39.6	779.0	13.01	-40.0	0	1.2	43.4	48.5	0	0	0	0	0	39.0	38.4	0.0
2018 11/16 08:45	-135.1	-58.4	1.7	0.0	30.05	39.6	787.0	13.00	-40.0	0	0.7	45.2	48.1	0	0	0	0	0	39.6	38.4	0.0
2018 11/16 09:00	-135.1	-58.4	1.7	0.0	30.05	39.8	793.0	13.00	-40.0	0	0.5	47.0	47.8	0	0	0	0	0	40.7	38.7	0.0
2018 11/16 09:15	-135.2	-58.3	1.8	0.0	30.05	39.8	798.0	13.01	-39.9	0	0.2	49.7	47.0	0	0	0	0	0	42.1	39.6	0.0
2018 11/16 09:30	-135.2	-58.2	1.7	0.0	30.05	39.9	801.0	13.00	-39.6	0	0.6	47.9	46.5	0	0	0	0	0	43.5	40.6	0.0
2018 11/16 09:45	-135.1	-58.2	1.7	0.0	30.05	40.1	803.0	13.01	-39.9	0	0.9	47.0	46.0	0	0	0	0	0	45.6	42.1	0.0
2018 11/16 10:00	-135.2	-58.2	1.7	0.0	30.05	40.2	804.0	13.00	-39.6	0	0.9	47.0	48.4	0	0	0	0	0	47.4	44.0	0.0
2018 11/16 10:15	-135.1	-58.3	1.6	0.0	30.06	40.3	803.0	13.00	-40.0	0	0.7	47.9	48.5	0	0	0	0	0	49.0	45.8	0.0
2018 11/16 10:30	-135.1	-58.2	1.7	0.0	30.06	40.5	802.0	13.00	-39.6	0	1.1	47.0	48.5	0	0	0	0	0	50.4	46.9	0.0
2018 11/16 10:45	-134.8	-58.2	1.7	0.0	30.06	40.7	798.0	13.00	-40.0	0	1.1	46.1	48.3	0	0	0	0	0	51.6	48.5	0.0
2018 11/16 11:00	-134.7	-58.1	1.8	0.0	30.07	40.9	798.0	13.00	-39.9	0	1.0	46.1	48.8	0	0	0	0	0	52.9	49.8	0.0
2018 11/16 11:15	-134.6	-58.1	1.7	0.0	30.07	41.1	798.0	13.00	-40.0	0	1.0	47.0	49.2	0	0	0	0	0	54.0	51.0	0.0
2018 11/16 11:30	-134.4	-58.0	1.7	0.0	30.07	41.4	796.0	13.00	-39.9	0	0.9	47.0	49.6	0	0	0	0	0	54.8	51.7	0.0
2018 11/16 11:45	-134.6	-58.0	1.6	0.0	30.07	41.5	800.0	13.00	-39.6	0	0.7	47.9	50.3	0	0	0	0	0	55.6	52.5	0.0
2018 11/16 12:00	-134.6	-57.9	1.7	0.0	30.06	41.7	797.0	13.00	-39.8	0	0.2	51.5	50.6	0	0	0	0	0	56.2	53.3	0.0
2018 11/16 12:15	-134.3	-57.9	1.8	0.0	30.06	41.9	793.0	13.00	-39.9	0	-0.4	53.3	51.1	0	0	0	0	0	56.9	54.2	0.0
2018 11/16 12:30	-134.6	-57.9	1.6	0.0	30.06	42.0	789.0	13.00	-39.8	0	-0.3	53.3	50.8	0	0	0	0	0	57.3	54.3	0.0
2018 11/16 12:45	-134.4	-57.9	1.6	0.0	30.06	42.1	792.0	13.00	-39.8	0	-0.3	53.3	51.3	0	0	0	0	0	57.8	54.5	0.0
2018 11/16 13:00	-134.2	-57.8	1.7	0.0	30.05	42.2	804.0	13.00	-39.9	0	-0.1	53.3	51.1	0	0	0	0	0	58.0	54.3	0.0
2018 11/16 13:15	-134.1	-57.9	1.7	0.0	30.05	42.2	812.0	13.01	-40.0	0	0.0	52.4	51.2	0	0	0	0	0	58.6	54.6	0.0
2018 11/16 13:30	-134.3	-57.9	1.7	0.0	30.05	42.3	815.0	13.00	-39.9	0	0.4	49.7	51.5	0	0	0	0	0	59.0	54.8	0.0
2018 11/16 13:45	-134.1	-57.8	1.6	0.0	30.04	42.4	807.0	13.00	-39.9	0	0.0	52.4	52.0	0	0	0	0	0	59.0	54.8	0.0
2018 11/16 14:00	-134.2	-57.8	1.7	0.0	30.05	42.4	794.0	12.99	-39.8	0	-0.7	54.2	52.2	0	0	0	0	0	59.3	54.9	0.0
2018 11/16 14:15	-134.3	-57.8	1.6	0.0	30.04	42.5	817.0	13.00	-39.8	0	-0.8	55.1	51.9	0	0	0	0	0	59.4	55.0	0.0
2018 11/16 14:30	-134.2	-57.8	1.6	0.0	30.04	42.6	746.0	13.00	-39.8	0	-0.5	53.3	50.8	0	0	0	0	0	59.5	54.9	0.0
2018 11/16 14:45	-133.8	-57.8	1.7	0.0	30.04	42.3	739.0	13.01	-40.0	0	-0.6	52.4	49.9	0	0	0	0	0	59.5	54.6	0.0
2018 11/16 15:00	-134.0	-57.7	1.7	0.0	30.03	42.2	733.0	13.00	-39.9	0	-0.6	52.4	49.6	0	0	0	0	0	59.4	54.1	0.0
2018 11/16 15:15	-133.7	-57.6	118.3	0.0	30.03	42.6	724.0	13.00	-40.0	0	-0.7	51.5	48.8	0	0	0	0	0	59.2	53.7	0.0
2018 11/16 15:30	-136.6	-58.2	113.3	0.0	30.04	43.2	712.0	13.00	-39.9	0	-0.4	49.7	48.3	0	0	0	0	0	59.0	53.3	0.0
2018 11/16 15:45	-142.9	-68.3	95.8	15.1	30.04	43.7	695.7	12.98	-39.8	0	0.9	43.4	47.6	0	0	0	0	0	58.4	52.8	0.0
2018 11/16 16:00	-100.2	74.0	86.9	14.2	30.04	44.3	668.3	12.99	-39.8	0	0.8	42.5	46.8	0	0	0	0	0	57.7	52.2	0.0
2018 11/16 16:15	-274.6	67.8	87.9	18.1	30.05	44.8	619.0	12.99	-40.0	0	1.0	40.7	46.0	0	0	0	0	0	57.0	51.6	0.0
2018 11/16 16:30	42.0	86.0	94.7	19.8	30.05	45.4	513.8	12.98	-40.0	0	1.1	39.8	44.7	0	0	0	0	0	56.6	51.2	0.0
2018 11/16 16:45	41.5	89.3	99.0	18.5	30.06	45.7	308.8	12.98	-40.0	0	0.9	39.8	43.4	0	0	0	0	0	55.9	50.5	0.0
2018 11/16 17:00	40.5	91.2	90.2	16.9	30.06	46.0	100.8	13.01	-39.9	0	1.1	38.0	41.8	0	0	0	0	0	55.4	50.1	0.0
2018 11/16 17:15	39.6	94.1	98.2	18.6	30.06	46.1	41.1	13.02	-39.8	0	1.0	38.0	39.9	0	0	0	0	0	54.6	49.5	0.0
2018 11/16 17:30	39.2	96.0	100.7	19.1	30.06	46.0	0.3	13.00	-39.8	0	1.0	37.1	40.3	0	0	0	0	0	54.1	49.2	0.0
2018 11/16 17:45	39.0	96.4	119.4	11.1	30.05	45.8	0.0	12.99	-40.0	0	1.1	36.2	40.0	0	0	0	0	0	53.7	48.6	0.0
2018 11/16 18:00	38.7	97.0	89.7	10.9	30.04	45.5	0.0	12.98	-39.9	0	1.2	36.2	39.6	0	0	0	0	0	54.2	48.3	0.0
2018 11/16 18:15	38.1	98.7	94.3	13.3	30.04	45.2	0.0	13.00	-39.8	0	0.9	36.2	39.6	0	0	0	0	0	58.4	47.8	0.0
2018 11/16 18:30	37.3	99.8	98.2	17.5	30.03	44.8	0.0	12.97	-40.0	0	1.0	36.2	40.5	0	0	0	0	0	61.7	47.6	0.0
2018 11/16 18:45	37.3	100.1	90.2	17.4	30.03	44.7	-0.3	13.00	-39.9	0	0.9	36.2	41.1	0	0	0	0	0	65.4	47.1	0.0
2018 11/16 19:00	37.5	100.4	90.2	18.9	30.03	44.4	0.0	13.00	-39.6	0	0.9	36.2	41.3	0	0	0	0	0	68.0	46.9	0.0
2018 11/16 19:15	37.0	100.5	85.4	21.8	30.03	43.9	0.0	12.96	-39.6	0	0.9	36.2	41.3	0	0	0	0	0	68.7	46.7	0.0
2018 11/16 19:30	37.1	100.5	84.5	23.2	30.03	43.7	0.0	12.99	-40.0	0	0.9	36.2	41.3	0	0	0	0	0	68.7	46.6	0.0
2018 11/16 19:45	37.1	100.6	93.5	22.2	30.02	43.3	-0.3	12.97	-39.6	0	0.9	36.2	40.9	0	0	0	0	0	69.8	46.5	0.0
2018 11/16 20:00	36.6	100.7	90.7	24.8	30.02	43.0	0.0	12.98	-39.9	0	0.9	36.2	41.2	0	0	0	0	0	71.7	46.2	0.0
2018 11/16 20:15	36.2	100.8	81.8	24.9	30.02	42.7	-0.3	13.00	-40.0	0	0.9	35.3	40.8	0	0	0	0	0	73.0	46.1	0.0
2018 11/16 20:30	35.6	101.1	89.8	27.3	30.02	42.3	0.0	12.98	-39.9	0	0.8	35.3	40.3	0	0	0	0	0	73.2	46.0	0.0
2018 11/16 20:45	35.5	101.0	81.8	28.8	30.02	42.0	0.0	12.97	-40.0	0	1.0	34.4	39.9	0	0	0	0	0	73.6	45.9	0.0
2018 11/16 21:00	35.0	101.0	89.0	29.6	30.01	41.6	0.0	12.99	-39.9	0	0.8	34.4	39.8	0	0	0	0	0	73.9	45.8	0.0
2018 11/16 21:15	34.8	101.2	94.6	27.9	30.01	41.3	0.0	12.98	-39.8	0	1.1	33.5	39.4	0	0	0	0	0	74.5	45.7	0.0
2018 11/16 21:30	34.5	101.1	93.5	33.6	30.00	40.9	0.0	12.97	-39.6	0	0.9	33.5	39.1	0	0	0	0	0	74.5	45.6	0.0
2018 11/16 21:45	34.3	101.3	99.8	27.8	30.00	40.5	0.0	13.00	-39.9	0	0.9	33.5	38.7	0	0	0	0	0	74.9	45.6	0.0
2018 11/16 22:00	33.8	101.3	91.0	31.9	30.00	40.2	0.0	12.99	-39.9	0	0.9	32.6	37.8	0	0	0	0	0	75.5	45.5	0.0
2018 11/16 22:15	32.9	101.3	88.4	32.8	30.00	39.8	0.0	12.99	-40.0	0	0.9	31.7	37.2	0	0	0	0	0	75.7	45.3	0.0
2018 11/16 22:30	32.9	101.5	84.5	32.6	30.00	39.4	0.0	12.98	-39.8	0	0.8	31.7	37.1	0	0	0	0	0	75.8	45.2	0.0
2018 11/16 22:45	32.9	101.5	90.5	36.0	29.99	39.1	0.0	12.99	-40.0	0	0.9	31.7	37.0	0	0	0	0	0	75.7	45.0	0.0
2018 11/16 23:00	32.6	101.5	80.3	33.8	29.98	38.7	0.0	12.99	-39.9	0	0.9	31.7	37.0	0	0	0	0	0	74.9	45.0	0.0
2018 11/16 23:15	32.1	101.5	81.6	35.1	29.98	38.4	0.0	13.00	-39.8	0	1.1	30.8	36.7	0	0	0	0	0	74.5	44.9	0.0
2018 11/16 23:30	32.1	101.5	91.3	36.6	29.98	38.1	0.0	12.97	-39.9	0	1.1	30.8	36.7	0	0	0	0	0	73.5	44.8	0.0
2018 11/16 23:45	31.6	101.6	84.0	38.4	29.97	37.6	0.0	12.97	-39.8	0	0.9	30.8	36.2	0	0	0	0	0	72.8	44.5	0.0
2018 11/17 00:00	30.9	101.8	85.5	36.2	29.97	37.3	0.0	12.97	-39.9	0	0.9	29.9	35.7	0	0	0	0	0	71.8	44.3	0.0
2018 11/17 00:15	30.1	101.8	86.8	36.0	29.97	36.9	0.0	12.99	-39.9	0	0.9	29.9	35.1	0	1	0	0	0	70.9	44.2	0.0
2018 11/17 00:30	29.6	101.7	81.1	33.4	29.96	36.5	-0.3	12.96	-40.0	0	0.9	29.0	34.8	0	1	0	0	0	70.4	44.1	0.0
2018 11/17 00:45	28.7	101.8	81.0	40.2	29.96	36.2	-0.3	13.01	-39.9	0	0.9	28.1	34.2	0	1	0	0	0	69.6	44.0	0.0
2018 11/17 01:00	28.4	102.0	80.3	39.5	29.96	35.8	0.0	12.98	-39.9	0	0.8	28.1	33.9	0	1	0	0	0	69.5	43.8	0.0
2018 11/17 01:15	28.3	101.8	82.2	39.8	29.95	35.4	0.0	12.97	-39.9	0	0.8	28.1	33.9	0	1	0	0	0	70.8	43.5	0.0
2018 11/17 01:30	28.2	101.3	84.5	39.4	29.94	35.2	-0.3	13.00	-40.0	0	1.0	27.2	33.7	0	1	0	0	0	72.0	43.3	0.0
2018 11/17 01:45	28.4	97.8	83.0	39.5	29.94	34.8	-0.3	12.97	-39.8	0	0.9	27.2	33.6	0	1	0	0	0	73.8	43.2	0.0
2018 11/17 02:00	28.3	94.5	84.6	41.8	29.94	34.5	0.0	12.99	-39.9	0	0.9	27.2	33.5	0	1	0	0	0	75.3	42.9	0.0
2018 11/17 02:15	28.3	93.8	88.9	38.5	29.94	34.1	0.0	12.99	-39.8	0	0.9	27.2	33.4	0	1	0	0	0	75.7	42.7	0.0
2018 11/17 02:30	28.1	92.7	88.7	40.9	29.94	33.9	0.0	12.97	-40.1	0	1.0	27.2	33.4	0	1	0	0	0	75.4	42.6	0.0
2018 11/17 02:45	28.4	92.5	89.7	40.9	29.94	33.5	0.0	12.98	-39.6	0	1.1	27.2	33.4	0	1	0	0	0	74.8	42.4	0.0
2018 11/17 03:00	28.1	93.1	87.6	42.6	29.93	33.2	-0.3	12.98	-39.8	0	0.9	27.2	33.3	0	1	0	0	0	73.9	42.2	0.0
2018 11/17 03:15	27.9	94.6	86.9	38.2	29.94	32.9	-0.3	12.98	-40.1	0	0.9	27.2	33.2	0	1	0	0	0	72.9	42.1	0.0
2018 11/17 03:30	27.4	95.7	83.0	36.7	29.92	32.6	-0.3	12.98	-39.9	0	0.9	27.2	33.2	0	1	0	0	0	71.9	42.0	0.0
2018 11/17 03:45	27.1	97.1	81.7	39.3	29.92	32.4	-0.3	12.98	-39.9	0	0.9	27.2	33.2	0	1	0	0	0	70.4	41.9	0.0
2018 11/17 04:00	27.0	98.2	90.8	39.9	29.93	32.1	0.0	12.99	-39.9	0	0.9	27.2	33.0	0	1	0	0	0	69.3	41.7	0.0
2018 11/17 04:15	26.8	99.1	88.7	41.1	29.91	31.8	-0.3	12.99	-39.6	0	1.0	26.3	32.7	0	1	0	0	0	68.3	41.5	0.0
2018 11/17 04:30	26.7	99.4	83.9	39.9	29.92	31.6	0.0	12.99	-39.8	0	0.9	26.3	32.6	0	1	0	0	0	67.6	41.5	0.0
2018 11/17 04:45	26.6	99.0	84.9	42.4	29.91	31.4	0.0	12.98	-39.9	0	1.0	26.3	32.5	0	1	0	0	0	67.8	41.3	0.0
2018 11/17 05:00	26.7	98.5	89.3	43.5	29.91	31.2	-0.3	12.99	-39.8	0	0.9	26.3	32.4	0	1	0	0	0	69.6	41.2	0.0
2018 11/17 05:15	26.7	98.2	86.2	43.2	29.90	31.0	0.0	12.96	-39.8	0	0.8	26.3	32.3	0	1	0	0	0	71.3	41.1	0.0
2018 11/17 05:30	26.4	98.3	76.7	45.3	29.90	30.8	0.0	12.98	-39.9	0	0.8	26.3	32.1	0	1	0	0	0	71.8	40.8	0.0
2018 11/17 05:45	26.4	98.3	87.2	47.4	29.89	30.4	0.0	12.96	-39.9	0	0.8	26.3	32.2	0	1	0	0	0	72.0	40.5	0.0
2018 11/17 06:00	26.4	98.5	85.4	46.6	29.89	30.2	-0.3	12.98	-39.9	0	0.8	26.3	32.1	0	1	0	0	0	72.2	40.2	0.0
2018 11/17 06:15	26.2	98.7	90.2	46.7	29.89	29.9	0.0	12.98	-39.6	0	1.1	25.4	31.8	0	1	0	0	0	72.1	40.0	0.0
2018 11/17 06:30	26.0	98.4	83.8	48.2	29.89	29.7	0.7	12.98	-39.8	0	1.1	25.4	31.8	0	1	0	0	0	71.4	39.9	0.0
2018 11/17 06:45	26.0	98.3	85.0	49.9	29.89	29.3	15.3	12.96	-39.9	0	1.1	25.4	31.6	0	1	0	0	0	70.5	39.7	0.0
2018 11/17 07:00	26.0	98.2	98.0	50.1	29.89	29.1	145.3	12.99	-39.8	0	1.0	25.4	31.5	0	1	0	0	0	69.3	39.5	0.0
2018 11/17 07:15	25.9	98.3	94.0	48.5	29.90	28.8	395.2	12.98	-39.6	0	0.9	25.4	31.5	0	1	0	0	0	68.0	39.5	0.0
2018 11/17 07:30	25.5	98.3	92.9	50.1	29.89	28.4	580.9	12.97	-39.6	0	1.1	25.4	31.5	0	1	0	0	0	68.7	39.4	0.0
2018 11/17 07:45	25.4	97.8	91.3	49.1	29.89	28.2	644.4	12.98	-40.0	0	1.0	25.4	31.3	0	1	0	0	0	70.1	39.2	0.0
2018 11/17 08:00	25.6	97.7	94.0	47.9	29.88	28.0	650.5	12.96	-39.9	0	1.1	25.4	31.5	0	1	0	0	0	71.1	38.9	0.0
2018 11/17 08:15	25.5	98.3	94.4	49.4	29.88	27.7	670.9	12.97	-39.9	0	1.2	25.4	31.6	0	1	0	0	0	72.2	38.8	0.0
2018 11/17 08:30	25.5	98.8	96.9	48.6	29.88	27.4	688.5	12.97	-39.9	0	1.0	26.3	31.7	0	1	0	0	0	72.5	38.7	0.0
2018 11/17 08:45	25.6	99.1	93.6	48.6	29.89	27.4	718.0	12.98	-40.0	0	0.8	26.3	31.7	0	1	0	0	0	73.2	38.5	0.0
2018 11/17 09:00	25.8	99.4	89.5	51.6	29.89	27.6	732.0	12.98	-39.8	0	1.1	26.3	32.2	0	1	0	0	0	73.6	38.6	0.0
2018 11/17 09:15	25.5	99.3	0.6	0.0	29.90	28.2	743.0	12.99	-40.0	0	1.0	26.3	32.5	0	1	0	0	0	73.7	38.6	0.0
2018 11/17 09:33	-999	-999	-999	-999	-999	-999	-999	-999	-999	-999	0.8	27.2	32.8						73.8	38.5	0.0
2018 11/17 09:45	292.0	-1.0	1.1	46.0	29.91	28.9	803.0	12.97	-40.0	0	0.6	27.2	32.6	0	1	0	0	0	73.8	38.5	0.0
2018 11/17 10:00	293.3	46.6	1.1	45.9	29.92	29.8	794.0	12.99	-40.0	0	1.1	27.2	33.0	0	1	0	0	0	73.4	38.6	0.0
2018 11/17 10:15	26.2	98.2	1.1	32.0	29.93	30.7	794.0	12.99	-39.9	0	1.1	27.2	33.4	0	1	0	0	0	73.1	38.8	0.0
2018 11/17 10:30	26.6	98.4	89.4	49.2	29.95	31.4	819.0	12.99	-39.8	0	1.0	28.1	33.4	0	1	0	0	0	72.7	38.8	0.0
2018 11/17 10:45	27.0	97.1	96.6	49.6	29.94	32.0	802.0	12.99	-39.8	0	1.1	29.0	34.4	0	1	0	0	0	72.1	39.7	0.0
2018 11/17 11:00	27.2	94.6	94.0	51.5	29.95	32.6	803.0	12.97	-39.5	0	1.0	29.9	35.4	0	1	0	0	0	71.4	41.1	0.0
2018 11/17 11:15	27.9	91.9	90.6	50.9	29.96	33.2	802.0	13.00	-39.3	0	1.4	29.9	35.8	0	1	0	0	0	71.1	42.3	0.0
2018 11/17 11:30	28.6	91.0	86.0	48.7	29.95	33.9	801.0	12.97	-39.1	0	0.9	30.8	36.1	0	1	0	0	0	70.8	43.1	0.0
2018 11/17 11:45	28.9	89.7	84.6	49.2	29.95	34.5	803.0	12.98	-39.3	0	1.1	31.7	36.8	0	1	0	0	0	70.3	44.0	0.0
2018 11/17 12:00	29.3	87.3	97.6	49.3	29.97	35.0	800.0	12.99	-39.1	0	0.6	34.4	37.6	0	1	0	0	0	69.6	44.9	0.0
2018 11/17 12:15	29.9	84.1	94.7	48.4	29.97	35.6	796.0	12.99	-39.4	0	0.4	36.2	38.2	0	1	0	0	0	69.0	45.5	0.0
2018 11/17 12:30	30.4	77.7	122.7	42.6	29.96	36.1	791.0	13.00	-86.9	0	-0.1	37.1	38.7	0	1	0	0	0	68.4	45.9	0.0
2018 11/17 12:45	30.6	76.0	100.5	50.9	29.96	36.6	796.0	13.00	-123.7	0	-0.2	38.0	39.1	0	1	0	0	0	67.6	46.0	0.0
2018 11/17 13:00	31.0	73.8	104.0	43.6	29.96	36.9	458.8	12.99	-133.1	0	0.6	35.3	39.3	0	1	0	0	0	66.9	46.0	0.0
2018 11/17 13:15	31.2	72.7	89.7	47.4	29.96	37.2	694.4	12.99	-135.5	0	-0.0	37.1	39.3	0	1	0	0	0	66.4	46.2	0.0
2018 11/17 13:30	30.0	73.4	115.6	40.2	29.96	37.5	691.7	12.99	-136.0	0	0.5	35.3	39.5	0	1	0	0	0	65.9	46.5	0.0
2018 11/17 13:45	31.4	70.5	102.9	37.6	29.97	37.7	664.9	12.99	-136.3	0	0.3	36.2	39.8	0	1	0	0	0	65.0	46.6	0.0
2018 11/17 14:00	31.7	70.9	81.8	45.8	29.98	37.5	652.6	12.98	-136.4	0	0.0	37.1	39.6	0	1	0	0	0	64.4	46.7	0.0
2018 11/17 14:15	32.1	67.5	98.6	38.8	29.97	37.5	684.2	13.00	-136.4	0	-0.2	38.0	39.4	0	1	0	0	0	66.5	46.8	0.0
2018 11/17 14:30	31.8	68.2	89.6	45.8	29.97	37.4	575.9	13.01	-136.4	0	0.0	37.1	39.1	0	1	0	0	0	69.2	46.7	0.0
2018 11/17 14:45	31.5	68.6	95.1	39.5	29.97	37.3	568.8	13.00	-136.5	0	-0.1	37.1	38.2	0	1	0	0	0	71.0	46.2	0.0
2018 11/17 15:00	31.5	69.8	99.1	41.5	29.97	37.3	559.0	12.97	-136.5	0	-0.1	37.1	38.0	0	1	0	0	0	72.5	45.6	0.0
2018 11/17 15:15	31.6	69.6	97.5	34.9	29.97	37.2	546.4	12.98	-136.5	0	0.0	35.3	37.5	0	1	0	0	0	73.9	45.0	0.0
2018 11/17 15:30	31.2	69.1	82.9	43.8	29.97	37.0	528.4	12.98	-136.5	0	0.4	33.5	37.0	0	1	0	0	0	75.0	44.7	0.0
2018 11/17 15:45	31.0	69.0	97.9	44.2	29.96	36.8	505.3	12.99	-136.6	0	0.9	30.8	36.6	0	1	0	0	0	76.0	44.1	0.0
2018 11/17 16:00	31.1	68.4	96.4	42.5	29.97	36.6	469.4	12.99	-136.6	0	0.7	29.9	36.0	0	1	0	0	0	76.5	43.5	0.0
2018 11/17 16:15	30.1	69.1	88.3	47.1	29.97	36.4	408.3	12.98	-136.6	0	1.0	29.0	35.3	0	1	0	0	0	75.9	43.0	0.0
2018 11/17 16:30	30.9	69.0	90.5	46.9	29.97	36.2	296.3	13.00	-136.8	0	0.9	29.0	34.6	0	1	0	0	0	75.1	42.6	0.0
2018 11/17 16:45	29.9	69.2	90.1	47.4	29.96	36.0	128.3	12.98	-136.8	0	0.8	28.1	34.0	0	1	0	0	0	74.3	42.2	0.0
2018 11/17 17:00	29.3	70.3	93.0	46.8	29.96	35.9	23.8	12.99	-136.8	0	0.9	27.2	33.3	0	1	0	0	0	72.7	42.0	0.0
2018 11/17 17:15	28.8	73.9	97.7	45.6	29.96	35.7	1.7	12.98	-136.8	0	0.9	27.2	32.8	0	1	0	0	0	73.8	41.5	0.0
2018 11/17 17:30	28.5	75.6	92.1	44.8	29.96	35.6	0.0	13.00	-136.9	0	0.9	27.2	32.6	0	1	0	0	0	75.0	41.2	0.0
2018 11/17 17:45	30.4	77.6	93.8	40.2	29.96	35.6	0.0	12.96	-136.9	0	0.9	26.3	32.1	0	1	0	0	0	75.8	40.8	0.0
2018 11/17 18:00	27.9	77.9	90.8	41.4	29.96	35.6	-0.3	12.97	-136.9	0	0.9	26.3	31.7	0	1	0	0	0	76.3	40.6	0.0
2018 11/17 18:15	28.4	78.9	86.9	40.2	29.96	35.6	0.0	12.97	-136.9	0	0.9	26.3	31.6	0	1	0	0	0	77.0	40.4	0.0
2018 11/17 18:30	27.4	80.7	87.4	36.8	29.97	35.6	0.0	12.96	-136.9	0	1.1	25.4	31.3	0	1	0	0	0	77.3	40.2	0.0
2018 11/17 18:45	27.4	82.1	98.9	31.2	29.96	35.7	0.0	12.98	-136.9	0	1.0	25.4	30.9	0	1	0	0	0	77.1	39.9	0.0
2018 11/17 19:00	27.3	83.4	110.5	29.1	29.97	35.8	0.0	12.98	-137.0	0	0.9	25.4	30.7	0	1	0	0	0	76.7	39.7	0.0
2018 11/17 19:15	27.1	84.3	108.0	27.5	29.97	35.8	-0.3	12.98	-137.0	0	1.2	24.5	30.5	0	1	0	0	0	75.6	39.5	0.0
2018 11/17 19:30	27.1	85.2	116.5	31.4	29.97	35.8	0.0	12.98	-137.0	0	1.2	24.5	30.4	0	1	0	0	0	74.8	39.3	0.0
2018 11/17 19:45	26.8	86.2	75.8	34.7	29.98	36.0	0.0	12.97	-136.9	0	1.1	24.5	30.3	0	1	0	0	0	73.7	39.2	0.0
2018 11/17 20:00	26.6	86.7	92.5	36.0	29.97	36.0	-0.3	12.97	-136.9	0	1.2	24.5	30.2	0	1	0	0	0	73.1	39.0	0.0

Where:
  YYYY   = Year
  MM/DD  = Month / Date
  hh:mm  = Hour  : Minute
  Temp   = Temperature outside       (F)              @ 5720', on tower
  Humid  = Humidity    outside       (%)              @ 5720'
  W_dir  = Wind direction / Azimuth  (degrees)        @ 5720'
  W_spd  = Wind speed                (miles per hour) @ 5720'
  Barom  = Sea-level air pressure    (inches of mercury)
  T_int  = Temperature (internal)    (F)              - inside barometer case
  Light  = Outside light level       (no units)       - 0 = dark, 1000 = bright
  Power  = Power supply rail         (Volts)
  Temp2  = Temperature (back-up)     (F)
  P2     = datalogger counter channel "P2" (to be static burst counter)
  Snow   = Snow depth,  mid-mountain (inches)         @ 5010'
  T_mid  = Temperature, mid-mountain (F)              @ 5010'
  T_base = Temperature @ south lodge (F)              @ 4700'
  Precip = Precipitation total       (inches)         @ 4800' (near US20 mp81)

Notes:
1999 07/17
   Barometric data in this listing should have an additional
   temperature correction applied to it, based on the sensor's
   internal temperature:

   P_corrected = Barom + (-0.0223 * T_int) + 0.8887  (inches Hg)

2004 07/03
   The air pressure correction equation has not been checked
   in a long time.  The air pressure reading is best used only
   to observe general trends.

2006 11/18
   Added precipitation gauge.  Depth is precipitation equivalent in water,
   for the water year (beginning October 1st) at the Hogg Pass
   SnoTel station.

2011 03/11
  Fixed data column title bug from adding "T_base" after "T_mid".
  If you notice a bug like this it will get fixed a whole lot sooner
  if you tell me about it.